<?xml version="1.0" encoding="utf-8"?>
<gpx xmlns:xsi="http://www.w3.org/2001/XMLSchema-instance" xmlns:xsd="http://www.w3.org/2001/XMLSchema" version="1.1" creator="Shapelink.com" xmlns="http://www.topografix.com/GPX/1/1" xmlns:gpxtpx="http://www.garmin.com/xmlschemas/TrackPointExtension/v1">
  <metadata>
    <name>Løping 3.10 km, 2014-08-29</name>
    <desc></desc>
    <author><name>Mikael Blom</name></author> 
    <time>2014-08-29T17:43:22Z</time>
  </metadata>
  <trk>
    <name>Løping 3.10 km, 2014-08-29</name>
    <trkseg>
      <trkpt lat="59.97885468572" lon="17.739389541379">
        <ele>36.2</ele>
        <time>2014-08-29T17:43:22Z</time>
      </trkpt>
      <trkpt lat="59.978801209198" lon="17.739359617996">
        <ele>36.2</ele>
        <time>2014-08-29T17:43:23Z</time>
      </trkpt>
      <trkpt lat="59.978781092638" lon="17.739376297977">
        <ele>36.2</ele>
        <time>2014-08-29T17:43:24Z</time>
      </trkpt>
      <trkpt lat="59.978737506758" lon="17.739355427046">
        <ele>36.2</ele>
        <time>2014-08-29T17:43:25Z</time>
      </trkpt>
      <trkpt lat="59.978709175936" lon="17.739317624677">
        <ele>36.4</ele>
        <time>2014-08-29T17:43:26Z</time>
      </trkpt>
      <trkpt lat="59.978673217585" lon="17.739296669927">
        <ele>36.4</ele>
        <time>2014-08-29T17:43:27Z</time>
      </trkpt>
      <trkpt lat="59.978638265062" lon="17.739314439555">
        <ele>36.4</ele>
        <time>2014-08-29T17:43:28Z</time>
      </trkpt>
      <trkpt lat="59.978554948976" lon="17.739291221692">
        <ele>36.2</ele>
        <time>2014-08-29T17:43:29Z</time>
      </trkpt>
      <trkpt lat="59.97854539361" lon="17.73928887476">
        <ele>36.2</ele>
        <time>2014-08-29T17:43:30Z</time>
      </trkpt>
      <trkpt lat="59.978505411947" lon="17.73930060942">
        <ele>36.4</ele>
        <time>2014-08-29T17:43:31Z</time>
      </trkpt>
      <trkpt lat="59.97846157461" lon="17.739275212263">
        <ele>36.8</ele>
        <time>2014-08-29T17:43:32Z</time>
      </trkpt>
      <trkpt lat="59.978471968166" lon="17.739251910581">
        <ele>37.2</ele>
        <time>2014-08-29T17:43:33Z</time>
      </trkpt>
      <trkpt lat="59.978403152767" lon="17.7392771401">
        <ele>37.4</ele>
        <time>2014-08-29T17:43:34Z</time>
      </trkpt>
      <trkpt lat="59.978404912966" lon="17.739318546686">
        <ele>37.6</ele>
        <time>2014-08-29T17:43:35Z</time>
      </trkpt>
      <trkpt lat="59.978355292118" lon="17.739283258887">
        <ele>37.4</ele>
        <time>2014-08-29T17:43:36Z</time>
      </trkpt>
      <trkpt lat="59.978360656534" lon="17.739336148676">
        <ele>37.4</ele>
        <time>2014-08-29T17:43:37Z</time>
      </trkpt>
      <trkpt lat="59.978309946039" lon="17.739369089543">
        <ele>37.6</ele>
        <time>2014-08-29T17:43:38Z</time>
      </trkpt>
      <trkpt lat="59.978280190294" lon="17.739362719299">
        <ele>37.8</ele>
        <time>2014-08-29T17:43:39Z</time>
      </trkpt>
      <trkpt lat="59.978249344902" lon="17.739361294376">
        <ele>37.8</ele>
        <time>2014-08-29T17:43:40Z</time>
      </trkpt>
      <trkpt lat="59.978217074587" lon="17.739358360711">
        <ele>37.8</ele>
        <time>2014-08-29T17:43:41Z</time>
      </trkpt>
      <trkpt lat="59.978184301358" lon="17.739353918304">
        <ele>37.8</ele>
        <time>2014-08-29T17:43:42Z</time>
      </trkpt>
      <trkpt lat="59.978154545613" lon="17.739343021834">
        <ele>38.4</ele>
        <time>2014-08-29T17:43:43Z</time>
      </trkpt>
      <trkpt lat="59.978124035497" lon="17.739333382649">
        <ele>38.4</ele>
        <time>2014-08-29T17:43:44Z</time>
      </trkpt>
      <trkpt lat="59.978095788494" lon="17.7393190496">
        <ele>37.8</ele>
        <time>2014-08-29T17:43:45Z</time>
      </trkpt>
      <trkpt lat="59.978065446016" lon="17.739307063483">
        <ele>37.6</ele>
        <time>2014-08-29T17:43:46Z</time>
      </trkpt>
      <trkpt lat="59.978033175701" lon="17.739293400986">
        <ele>37.6</ele>
        <time>2014-08-29T17:43:47Z</time>
      </trkpt>
      <trkpt lat="59.978000318653" lon="17.739269680209">
        <ele>37.6</ele>
        <time>2014-08-29T17:43:48Z</time>
      </trkpt>
      <trkpt lat="59.977972658383" lon="17.739246629984">
        <ele>37.2</ele>
        <time>2014-08-29T17:43:49Z</time>
      </trkpt>
      <trkpt lat="59.977945417208" lon="17.739223076845">
        <ele>37</ele>
        <time>2014-08-29T17:43:50Z</time>
      </trkpt>
      <trkpt lat="59.977912895436" lon="17.739209414348">
        <ele>36.8</ele>
        <time>2014-08-29T17:43:51Z</time>
      </trkpt>
      <trkpt lat="59.977882972053" lon="17.73919164472">
        <ele>37</ele>
        <time>2014-08-29T17:43:52Z</time>
      </trkpt>
      <trkpt lat="59.977850701738" lon="17.739168845952">
        <ele>37</ele>
        <time>2014-08-29T17:43:53Z</time>
      </trkpt>
      <trkpt lat="59.977820443079" lon="17.739150321953">
        <ele>36.8</ele>
        <time>2014-08-29T17:43:54Z</time>
      </trkpt>
      <trkpt lat="59.977788927135" lon="17.739139593121">
        <ele>36.8</ele>
        <time>2014-08-29T17:43:55Z</time>
      </trkpt>
      <trkpt lat="59.977757243553" lon="17.739129534841">
        <ele>37</ele>
        <time>2014-08-29T17:43:56Z</time>
      </trkpt>
      <trkpt lat="59.977729164188" lon="17.739117129629">
        <ele>36.8</ele>
        <time>2014-08-29T17:43:57Z</time>
      </trkpt>
      <trkpt lat="59.977698151158" lon="17.739105981702">
        <ele>36.4</ele>
        <time>2014-08-29T17:43:58Z</time>
      </trkpt>
      <trkpt lat="59.977669652698" lon="17.739095755784">
        <ele>36.4</ele>
        <time>2014-08-29T17:43:59Z</time>
      </trkpt>
      <trkpt lat="59.977642076247" lon="17.739089720816">
        <ele>36.6</ele>
        <time>2014-08-29T17:44:00Z</time>
      </trkpt>
      <trkpt lat="59.977614332158" lon="17.73908016545">
        <ele>36</ele>
        <time>2014-08-29T17:44:01Z</time>
      </trkpt>
      <trkpt lat="59.977585414603" lon="17.739076896509">
        <ele>35.8</ele>
        <time>2014-08-29T17:44:02Z</time>
      </trkpt>
      <trkpt lat="59.97755549122" lon="17.739077231785">
        <ele>35.8</ele>
        <time>2014-08-29T17:44:03Z</time>
      </trkpt>
      <trkpt lat="59.977524226733" lon="17.739080249269">
        <ele>35.6</ele>
        <time>2014-08-29T17:44:04Z</time>
      </trkpt>
      <trkpt lat="59.977498913395" lon="17.739080500726">
        <ele>35</ele>
        <time>2014-08-29T17:44:05Z</time>
      </trkpt>
      <trkpt lat="59.977468487098" lon="17.73909022373">
        <ele>34.8</ele>
        <time>2014-08-29T17:44:06Z</time>
      </trkpt>
      <trkpt lat="59.977439569543" lon="17.739107238987">
        <ele>35</ele>
        <time>2014-08-29T17:44:07Z</time>
      </trkpt>
      <trkpt lat="59.977411406359" lon="17.739130624488">
        <ele>35</ele>
        <time>2014-08-29T17:44:08Z</time>
      </trkpt>
      <trkpt lat="59.977380477148" lon="17.739151160143">
        <ele>34.6</ele>
        <time>2014-08-29T17:44:09Z</time>
      </trkpt>
      <trkpt lat="59.977355918181" lon="17.73916566083">
        <ele>34.2</ele>
        <time>2014-08-29T17:44:10Z</time>
      </trkpt>
      <trkpt lat="59.977329431377" lon="17.739185861209">
        <ele>34.2</ele>
        <time>2014-08-29T17:44:11Z</time>
      </trkpt>
      <trkpt lat="59.977302693116" lon="17.739208995253">
        <ele>34.4</ele>
        <time>2014-08-29T17:44:12Z</time>
      </trkpt>
      <trkpt lat="59.977277715054" lon="17.739232799849">
        <ele>34.2</ele>
        <time>2014-08-29T17:44:13Z</time>
      </trkpt>
      <trkpt lat="59.977272183" lon="17.739198936973">
        <ele>33.8</ele>
        <time>2014-08-29T17:44:14Z</time>
      </trkpt>
      <trkpt lat="59.977234548269" lon="17.739214862583">
        <ele>33.6</ele>
        <time>2014-08-29T17:44:15Z</time>
      </trkpt>
      <trkpt lat="59.977196997357" lon="17.73922936327">
        <ele>33.6</ele>
        <time>2014-08-29T17:44:16Z</time>
      </trkpt>
      <trkpt lat="59.977166906336" lon="17.739242690491">
        <ele>33.4</ele>
        <time>2014-08-29T17:44:17Z</time>
      </trkpt>
      <trkpt lat="59.97714226355" lon="17.739256939721">
        <ele>33.2</ele>
        <time>2014-08-29T17:44:18Z</time>
      </trkpt>
      <trkpt lat="59.977110915244" lon="17.739274709349">
        <ele>33.2</ele>
        <time>2014-08-29T17:44:19Z</time>
      </trkpt>
      <trkpt lat="59.977073280513" lon="17.739288790941">
        <ele>33.2</ele>
        <time>2014-08-29T17:44:20Z</time>
      </trkpt>
      <trkpt lat="59.977044530596" lon="17.739302201981">
        <ele>33</ele>
        <time>2014-08-29T17:44:21Z</time>
      </trkpt>
      <trkpt lat="59.977015445403" lon="17.739312511718">
        <ele>32.8</ele>
        <time>2014-08-29T17:44:22Z</time>
      </trkpt>
      <trkpt lat="59.976990467341" lon="17.739321983265">
        <ele>32.8</ele>
        <time>2014-08-29T17:44:23Z</time>
      </trkpt>
      <trkpt lat="59.976961046872" lon="17.739333885563">
        <ele>32.8</ele>
        <time>2014-08-29T17:44:24Z</time>
      </trkpt>
      <trkpt lat="59.976933889516" lon="17.739345787861">
        <ele>32.8</ele>
        <time>2014-08-29T17:44:25Z</time>
      </trkpt>
      <trkpt lat="59.97690673216" lon="17.739352744838">
        <ele>32.4</ele>
        <time>2014-08-29T17:44:26Z</time>
      </trkpt>
      <trkpt lat="59.976882340831" lon="17.739358947444">
        <ele>32.4</ele>
        <time>2014-08-29T17:44:27Z</time>
      </trkpt>
      <trkpt lat="59.976854345285" lon="17.739372609941">
        <ele>32.4</ele>
        <time>2014-08-29T17:44:28Z</time>
      </trkpt>
      <trkpt lat="59.976826349739" lon="17.73938107566">
        <ele>32.2</ele>
        <time>2014-08-29T17:44:29Z</time>
      </trkpt>
      <trkpt lat="59.976800784944" lon="17.739389709017">
        <ele>31.8</ele>
        <time>2014-08-29T17:44:30Z</time>
      </trkpt>
      <trkpt lat="59.976774214321" lon="17.739403790609">
        <ele>31.6</ele>
        <time>2014-08-29T17:44:31Z</time>
      </trkpt>
      <trkpt lat="59.97674496149" lon="17.739418458934">
        <ele>31.6</ele>
        <time>2014-08-29T17:44:32Z</time>
      </trkpt>
      <trkpt lat="59.97671394846" lon="17.739435306553">
        <ele>31.4</ele>
        <time>2014-08-29T17:44:33Z</time>
      </trkpt>
      <trkpt lat="59.97668293543" lon="17.739457770045">
        <ele>31.2</ele>
        <time>2014-08-29T17:44:34Z</time>
      </trkpt>
      <trkpt lat="59.97665695154" lon="17.739479479166">
        <ele>31.6</ele>
        <time>2014-08-29T17:44:35Z</time>
      </trkpt>
      <trkpt lat="59.976630380917" lon="17.739506133608">
        <ele>31.6</ele>
        <time>2014-08-29T17:44:36Z</time>
      </trkpt>
      <trkpt lat="59.976602972104" lon="17.739536559905">
        <ele>31.2</ele>
        <time>2014-08-29T17:44:37Z</time>
      </trkpt>
      <trkpt lat="59.976575060377" lon="17.739569584591">
        <ele>31</ele>
        <time>2014-08-29T17:44:38Z</time>
      </trkpt>
      <trkpt lat="59.976547232469" lon="17.739604118019">
        <ele>31.2</ele>
        <time>2014-08-29T17:44:39Z</time>
      </trkpt>
      <trkpt lat="59.97652032657" lon="17.739636555972">
        <ele>31.4</ele>
        <time>2014-08-29T17:44:40Z</time>
      </trkpt>
      <trkpt lat="59.976492163386" lon="17.739674693617">
        <ele>31.4</ele>
        <time>2014-08-29T17:44:41Z</time>
      </trkpt>
      <trkpt lat="59.976465089849" lon="17.73971551347">
        <ele>31</ele>
        <time>2014-08-29T17:44:42Z</time>
      </trkpt>
      <trkpt lat="59.976438016312" lon="17.739748035242">
        <ele>30.8</ele>
        <time>2014-08-29T17:44:43Z</time>
      </trkpt>
      <trkpt lat="59.976412702974" lon="17.739790028561">
        <ele>30.6</ele>
        <time>2014-08-29T17:44:44Z</time>
      </trkpt>
      <trkpt lat="59.97639040712" lon="17.739835877554">
        <ele>30.4</ele>
        <time>2014-08-29T17:44:45Z</time>
      </trkpt>
      <trkpt lat="59.976372721311" lon="17.739880888357">
        <ele>30.4</ele>
        <time>2014-08-29T17:44:46Z</time>
      </trkpt>
      <trkpt lat="59.976355035502" lon="17.739924474237">
        <ele>30.6</ele>
        <time>2014-08-29T17:44:47Z</time>
      </trkpt>
      <trkpt lat="59.976337852607" lon="17.739965042633">
        <ele>30.8</ele>
        <time>2014-08-29T17:44:48Z</time>
      </trkpt>
      <trkpt lat="59.976323854834" lon="17.740013322377">
        <ele>30.8</ele>
        <time>2014-08-29T17:44:49Z</time>
      </trkpt>
      <trkpt lat="59.976311868717" lon="17.740061937397">
        <ele>30.6</ele>
        <time>2014-08-29T17:44:50Z</time>
      </trkpt>
      <trkpt lat="59.97629820622" lon="17.740109043675">
        <ele>30.8</ele>
        <time>2014-08-29T17:44:51Z</time>
      </trkpt>
      <trkpt lat="59.976283370257" lon="17.7401572396">
        <ele>31</ele>
        <time>2014-08-29T17:44:52Z</time>
      </trkpt>
      <trkpt lat="59.976269037208" lon="17.740206776629">
        <ele>30.8</ele>
        <time>2014-08-29T17:44:53Z</time>
      </trkpt>
      <trkpt lat="59.976253446874" lon="17.740254888735">
        <ele>30.4</ele>
        <time>2014-08-29T17:44:54Z</time>
      </trkpt>
      <trkpt lat="59.976240538748" lon="17.740303755212">
        <ele>30.4</ele>
        <time>2014-08-29T17:44:55Z</time>
      </trkpt>
      <trkpt lat="59.976227127708" lon="17.740353292241">
        <ele>30.6</ele>
        <time>2014-08-29T17:44:56Z</time>
      </trkpt>
      <trkpt lat="59.976213129935" lon="17.740405846754">
        <ele>30.8</ele>
        <time>2014-08-29T17:44:57Z</time>
      </trkpt>
      <trkpt lat="59.976198126334" lon="17.740450522281">
        <ele>30.8</ele>
        <time>2014-08-29T17:44:58Z</time>
      </trkpt>
      <trkpt lat="59.976181278715" lon="17.740498215292">
        <ele>30.6</ele>
        <time>2014-08-29T17:44:59Z</time>
      </trkpt>
      <trkpt lat="59.976164766372" lon="17.740546243579">
        <ele>30.6</ele>
        <time>2014-08-29T17:45:00Z</time>
      </trkpt>
      <trkpt lat="59.976149259857" lon="17.740594355685">
        <ele>30.8</ele>
        <time>2014-08-29T17:45:01Z</time>
      </trkpt>
      <trkpt lat="59.97613308279" lon="17.740643557438">
        <ele>31.2</ele>
        <time>2014-08-29T17:45:02Z</time>
      </trkpt>
      <trkpt lat="59.976117827732" lon="17.740688568241">
        <ele>31.2</ele>
        <time>2014-08-29T17:45:03Z</time>
      </trkpt>
      <trkpt lat="59.976101818303" lon="17.740736512709">
        <ele>31</ele>
        <time>2014-08-29T17:45:04Z</time>
      </trkpt>
      <trkpt lat="59.976087569073" lon="17.740782194064">
        <ele>31</ele>
        <time>2014-08-29T17:45:05Z</time>
      </trkpt>
      <trkpt lat="59.976075499137" lon="17.740826450496">
        <ele>31</ele>
        <time>2014-08-29T17:45:06Z</time>
      </trkpt>
      <trkpt lat="59.976062423373" lon="17.740874562602">
        <ele>31.2</ele>
        <time>2014-08-29T17:45:07Z</time>
      </trkpt>
      <trkpt lat="59.976050437256" lon="17.740920243957">
        <ele>31.2</ele>
        <time>2014-08-29T17:45:08Z</time>
      </trkpt>
      <trkpt lat="59.976037612949" lon="17.740966847321">
        <ele>31.2</ele>
        <time>2014-08-29T17:45:09Z</time>
      </trkpt>
      <trkpt lat="59.976024788642" lon="17.741012528676">
        <ele>31.2</ele>
        <time>2014-08-29T17:45:10Z</time>
      </trkpt>
      <trkpt lat="59.976011712878" lon="17.741058964402">
        <ele>31.6</ele>
        <time>2014-08-29T17:45:11Z</time>
      </trkpt>
      <trkpt lat="59.975998720933" lon="17.741106405956">
        <ele>31.6</ele>
        <time>2014-08-29T17:45:12Z</time>
      </trkpt>
      <trkpt lat="59.975988159739" lon="17.74115636208">
        <ele>31.6</ele>
        <time>2014-08-29T17:45:13Z</time>
      </trkpt>
      <trkpt lat="59.975977347088" lon="17.741209251869">
        <ele>31.6</ele>
        <time>2014-08-29T17:45:14Z</time>
      </trkpt>
      <trkpt lat="59.975969132826" lon="17.741266332608">
        <ele>31.8</ele>
        <time>2014-08-29T17:45:15Z</time>
      </trkpt>
      <trkpt lat="59.975959493641" lon="17.741320312044">
        <ele>32</ele>
        <time>2014-08-29T17:45:16Z</time>
      </trkpt>
      <trkpt lat="59.975946585515" lon="17.741365239028">
        <ele>31.8</ele>
        <time>2014-08-29T17:45:17Z</time>
      </trkpt>
      <trkpt lat="59.975933761208" lon="17.741411339478">
        <ele>31.6</ele>
        <time>2014-08-29T17:45:18Z</time>
      </trkpt>
      <trkpt lat="59.975920350168" lon="17.74146062505">
        <ele>31.8</ele>
        <time>2014-08-29T17:45:19Z</time>
      </trkpt>
      <trkpt lat="59.975906939128" lon="17.741511838459">
        <ele>32</ele>
        <time>2014-08-29T17:45:20Z</time>
      </trkpt>
      <trkpt lat="59.975892270803" lon="17.74156456061">
        <ele>32</ele>
        <time>2014-08-29T17:45:21Z</time>
      </trkpt>
      <trkpt lat="59.975880200867" lon="17.741613343268">
        <ele>31.8</ele>
        <time>2014-08-29T17:45:22Z</time>
      </trkpt>
      <trkpt lat="59.975868466207" lon="17.741660701003">
        <ele>31.8</ele>
        <time>2014-08-29T17:45:23Z</time>
      </trkpt>
      <trkpt lat="59.975858827022" lon="17.741709399842">
        <ele>32</ele>
        <time>2014-08-29T17:45:24Z</time>
      </trkpt>
      <trkpt lat="59.975849020199" lon="17.741756087025">
        <ele>32</ele>
        <time>2014-08-29T17:45:25Z</time>
      </trkpt>
      <trkpt lat="59.975838375186" lon="17.741809228271">
        <ele>32</ele>
        <time>2014-08-29T17:45:26Z</time>
      </trkpt>
      <trkpt lat="59.975828233087" lon="17.741860357861">
        <ele>32</ele>
        <time>2014-08-29T17:45:27Z</time>
      </trkpt>
      <trkpt lat="59.975819683549" lon="17.741910397804">
        <ele>32</ele>
        <time>2014-08-29T17:45:28Z</time>
      </trkpt>
      <trkpt lat="59.975808284165" lon="17.74195850991">
        <ele>32.2</ele>
        <time>2014-08-29T17:45:29Z</time>
      </trkpt>
      <trkpt lat="59.975799650808" lon="17.742008046939">
        <ele>32.2</ele>
        <time>2014-08-29T17:45:30Z</time>
      </trkpt>
      <trkpt lat="59.975790682175" lon="17.742057919244">
        <ele>32.2</ele>
        <time>2014-08-29T17:45:31Z</time>
      </trkpt>
      <trkpt lat="59.975781797361" lon="17.742107037178">
        <ele>32.2</ele>
        <time>2014-08-29T17:45:32Z</time>
      </trkpt>
      <trkpt lat="59.975774505108" lon="17.742162106261">
        <ele>32.4</ele>
        <time>2014-08-29T17:45:33Z</time>
      </trkpt>
      <trkpt lat="59.975762770448" lon="17.742212565299">
        <ele>32.8</ele>
        <time>2014-08-29T17:45:34Z</time>
      </trkpt>
      <trkpt lat="59.975752879806" lon="17.742264616898">
        <ele>32.6</ele>
        <time>2014-08-29T17:45:35Z</time>
      </trkpt>
      <trkpt lat="59.975741480422" lon="17.742317003773">
        <ele>32.4</ele>
        <time>2014-08-29T17:45:36Z</time>
      </trkpt>
      <trkpt lat="59.975730332495" lon="17.742366624621">
        <ele>32.4</ele>
        <time>2014-08-29T17:45:37Z</time>
      </trkpt>
      <trkpt lat="59.975713484876" lon="17.742413479442">
        <ele>32.6</ele>
        <time>2014-08-29T17:45:38Z</time>
      </trkpt>
      <trkpt lat="59.975698145999" lon="17.742464860489">
        <ele>32.8</ele>
        <time>2014-08-29T17:45:39Z</time>
      </trkpt>
      <trkpt lat="59.975685908425" lon="17.742509033102">
        <ele>32.8</ele>
        <time>2014-08-29T17:45:40Z</time>
      </trkpt>
      <trkpt lat="59.975672162109" lon="17.742555049733">
        <ele>32.8</ele>
        <time>2014-08-29T17:45:41Z</time>
      </trkpt>
      <trkpt lat="59.975659924535" lon="17.742599641441">
        <ele>32.8</ele>
        <time>2014-08-29T17:45:42Z</time>
      </trkpt>
      <trkpt lat="59.975646848771" lon="17.742646831538">
        <ele>33.2</ele>
        <time>2014-08-29T17:45:43Z</time>
      </trkpt>
      <trkpt lat="59.975631426075" lon="17.74269527892">
        <ele>33</ele>
        <time>2014-08-29T17:45:44Z</time>
      </trkpt>
      <trkpt lat="59.975616925388" lon="17.742746240872">
        <ele>32.8</ele>
        <time>2014-08-29T17:45:45Z</time>
      </trkpt>
      <trkpt lat="59.975601418873" lon="17.742796113177">
        <ele>32.6</ele>
        <time>2014-08-29T17:45:46Z</time>
      </trkpt>
      <trkpt lat="59.975588091652" lon="17.742848080957">
        <ele>32.8</ele>
        <time>2014-08-29T17:45:47Z</time>
      </trkpt>
      <trkpt lat="59.975574093879" lon="17.742900467832">
        <ele>33</ele>
        <time>2014-08-29T17:45:48Z</time>
      </trkpt>
      <trkpt lat="59.975558419726" lon="17.742948328481">
        <ele>33</ele>
        <time>2014-08-29T17:45:49Z</time>
      </trkpt>
      <trkpt lat="59.975540566279" lon="17.742992920189">
        <ele>33</ele>
        <time>2014-08-29T17:45:50Z</time>
      </trkpt>
      <trkpt lat="59.975523048108" lon="17.743038350087">
        <ele>32.8</ele>
        <time>2014-08-29T17:45:51Z</time>
      </trkpt>
      <trkpt lat="59.975509888525" lon="17.743085288727">
        <ele>32.8</ele>
        <time>2014-08-29T17:45:52Z</time>
      </trkpt>
      <trkpt lat="59.97549857296" lon="17.743131892091">
        <ele>32.8</ele>
        <time>2014-08-29T17:45:53Z</time>
      </trkpt>
      <trkpt lat="59.975484994282" lon="17.743172292849">
        <ele>32.8</ele>
        <time>2014-08-29T17:45:54Z</time>
      </trkpt>
      <trkpt lat="59.975471080328" lon="17.743220237317">
        <ele>32.6</ele>
        <time>2014-08-29T17:45:55Z</time>
      </trkpt>
      <trkpt lat="59.975456412003" lon="17.743267511233">
        <ele>32.4</ele>
        <time>2014-08-29T17:45:56Z</time>
      </trkpt>
      <trkpt lat="59.975443168601" lon="17.74332643599">
        <ele>32.6</ele>
        <time>2014-08-29T17:45:57Z</time>
      </trkpt>
      <trkpt lat="59.975431014846" lon="17.743381840349">
        <ele>33</ele>
        <time>2014-08-29T17:45:58Z</time>
      </trkpt>
      <trkpt lat="59.975419531643" lon="17.743435987423">
        <ele>33</ele>
        <time>2014-08-29T17:45:59Z</time>
      </trkpt>
      <trkpt lat="59.975409808639" lon="17.743492649067">
        <ele>33</ele>
        <time>2014-08-29T17:46:00Z</time>
      </trkpt>
      <trkpt lat="59.975402432567" lon="17.743551322367">
        <ele>32.8</ele>
        <time>2014-08-29T17:46:01Z</time>
      </trkpt>
      <trkpt lat="59.975394218305" lon="17.743611336771">
        <ele>32.8</ele>
        <time>2014-08-29T17:46:02Z</time>
      </trkpt>
      <trkpt lat="59.975383405654" lon="17.7436692557">
        <ele>32.8</ele>
        <time>2014-08-29T17:46:03Z</time>
      </trkpt>
      <trkpt lat="59.975374017926" lon="17.74372457624">
        <ele>32.8</ele>
        <time>2014-08-29T17:46:04Z</time>
      </trkpt>
      <trkpt lat="59.97536530075" lon="17.743777466029">
        <ele>33</ele>
        <time>2014-08-29T17:46:05Z</time>
      </trkpt>
      <trkpt lat="59.975355158651" lon="17.743832367474">
        <ele>33</ele>
        <time>2014-08-29T17:46:06Z</time>
      </trkpt>
      <trkpt lat="59.975345854742" lon="17.743887771833">
        <ele>33</ele>
        <time>2014-08-29T17:46:07Z</time>
      </trkpt>
      <trkpt lat="59.975335461186" lon="17.743938063233">
        <ele>33</ele>
        <time>2014-08-29T17:46:08Z</time>
      </trkpt>
      <trkpt lat="59.975326073458" lon="17.743990869203">
        <ele>33.2</ele>
        <time>2014-08-29T17:46:09Z</time>
      </trkpt>
      <trkpt lat="59.975315093169" lon="17.744032108151">
        <ele>33.4</ele>
        <time>2014-08-29T17:46:10Z</time>
      </trkpt>
      <trkpt lat="59.975306375993" lon="17.744081226085">
        <ele>33.4</ele>
        <time>2014-08-29T17:46:11Z</time>
      </trkpt>
      <trkpt lat="59.975295563342" lon="17.744122381214">
        <ele>33.4</ele>
        <time>2014-08-29T17:46:12Z</time>
      </trkpt>
      <trkpt lat="59.975286175614" lon="17.744172756433">
        <ele>33.2</ele>
        <time>2014-08-29T17:46:13Z</time>
      </trkpt>
      <trkpt lat="59.97527645261" lon="17.744225981498">
        <ele>33.2</ele>
        <time>2014-08-29T17:46:14Z</time>
      </trkpt>
      <trkpt lat="59.975268489805" lon="17.744277111088">
        <ele>33.2</ele>
        <time>2014-08-29T17:46:15Z</time>
      </trkpt>
      <trkpt lat="59.975258347706" lon="17.74433058761">
        <ele>33.4</ele>
        <time>2014-08-29T17:46:16Z</time>
      </trkpt>
      <trkpt lat="59.975246613046" lon="17.744381633381">
        <ele>33.2</ele>
        <time>2014-08-29T17:46:17Z</time>
      </trkpt>
      <trkpt lat="59.975231525626" lon="17.744427901469">
        <ele>33</ele>
        <time>2014-08-29T17:46:18Z</time>
      </trkpt>
      <trkpt lat="59.975217276396" lon="17.744476181213">
        <ele>33</ele>
        <time>2014-08-29T17:46:19Z</time>
      </trkpt>
      <trkpt lat="59.975204032994" lon="17.7445242095">
        <ele>33</ele>
        <time>2014-08-29T17:46:20Z</time>
      </trkpt>
      <trkpt lat="59.975190705773" lon="17.744574584719">
        <ele>33.2</ele>
        <time>2014-08-29T17:46:21Z</time>
      </trkpt>
      <trkpt lat="59.975179557846" lon="17.744623618834">
        <ele>33.2</ele>
        <time>2014-08-29T17:46:22Z</time>
      </trkpt>
      <trkpt lat="59.975168577557" lon="17.744673910234">
        <ele>33</ele>
        <time>2014-08-29T17:46:23Z</time>
      </trkpt>
      <trkpt lat="59.975156339983" lon="17.744722609073">
        <ele>33</ele>
        <time>2014-08-29T17:46:24Z</time>
      </trkpt>
      <trkpt lat="59.975143096581" lon="17.744770469722">
        <ele>33.2</ele>
        <time>2014-08-29T17:46:25Z</time>
      </trkpt>
      <trkpt lat="59.975128344437" lon="17.74482009057">
        <ele>33.4</ele>
        <time>2014-08-29T17:46:26Z</time>
      </trkpt>
      <trkpt lat="59.975117028872" lon="17.744866526296">
        <ele>33.4</ele>
        <time>2014-08-29T17:46:27Z</time>
      </trkpt>
      <trkpt lat="59.97510294728" lon="17.744915476592">
        <ele>33.2</ele>
        <time>2014-08-29T17:46:28Z</time>
      </trkpt>
      <trkpt lat="59.975087356946" lon="17.744962918146">
        <ele>33.2</ele>
        <time>2014-08-29T17:46:29Z</time>
      </trkpt>
      <trkpt lat="59.975071515155" lon="17.745012622813">
        <ele>33.4</ele>
        <time>2014-08-29T17:46:30Z</time>
      </trkpt>
      <trkpt lat="59.975054918993" lon="17.745059980548">
        <ele>33.6</ele>
        <time>2014-08-29T17:46:31Z</time>
      </trkpt>
      <trkpt lat="59.97503924484" lon="17.745108176473">
        <ele>33.2</ele>
        <time>2014-08-29T17:46:32Z</time>
      </trkpt>
      <trkpt lat="59.975021139936" lon="17.745154947475">
        <ele>33</ele>
        <time>2014-08-29T17:46:33Z</time>
      </trkpt>
      <trkpt lat="59.975004627593" lon="17.745203311038">
        <ele>33.2</ele>
        <time>2014-08-29T17:46:34Z</time>
      </trkpt>
      <trkpt lat="59.974992222381" lon="17.745254775904">
        <ele>33.2</ele>
        <time>2014-08-29T17:46:35Z</time>
      </trkpt>
      <trkpt lat="59.974974452753" lon="17.745303223286">
        <ele>33.4</ele>
        <time>2014-08-29T17:46:36Z</time>
      </trkpt>
      <trkpt lat="59.974957437496" lon="17.74534647389">
        <ele>33.6</ele>
        <time>2014-08-29T17:46:37Z</time>
      </trkpt>
      <trkpt lat="59.974939835506" lon="17.745383605707">
        <ele>33.8</ele>
        <time>2014-08-29T17:46:38Z</time>
      </trkpt>
      <trkpt lat="59.974925753914" lon="17.745426772492">
        <ele>34</ele>
        <time>2014-08-29T17:46:39Z</time>
      </trkpt>
      <trkpt lat="59.974910917951" lon="17.745476896254">
        <ele>33.8</ele>
        <time>2014-08-29T17:46:40Z</time>
      </trkpt>
      <trkpt lat="59.97489507616" lon="17.74552584655">
        <ele>33.6</ele>
        <time>2014-08-29T17:46:41Z</time>
      </trkpt>
      <trkpt lat="59.974879318188" lon="17.745570102982">
        <ele>33.6</ele>
        <time>2014-08-29T17:46:42Z</time>
      </trkpt>
      <trkpt lat="59.974861716198" lon="17.745614359414">
        <ele>33.8</ele>
        <time>2014-08-29T17:46:43Z</time>
      </trkpt>
      <trkpt lat="59.974845706769" lon="17.745655849819">
        <ele>34</ele>
        <time>2014-08-29T17:46:44Z</time>
      </trkpt>
      <trkpt lat="59.97482802096" lon="17.745699938613">
        <ele>33.8</ele>
        <time>2014-08-29T17:46:45Z</time>
      </trkpt>
      <trkpt lat="59.974809748418" lon="17.745742267208">
        <ele>33.8</ele>
        <time>2014-08-29T17:46:46Z</time>
      </trkpt>
      <trkpt lat="59.974774879714" lon="17.745825415656">
        <ele>33.8</ele>
        <time>2014-08-29T17:46:48Z</time>
      </trkpt>
      <trkpt lat="59.97475593662" lon="17.745867408975">
        <ele>34.2</ele>
        <time>2014-08-29T17:46:49Z</time>
      </trkpt>
      <trkpt lat="59.974736825888" lon="17.745909234656">
        <ele>34.4</ele>
        <time>2014-08-29T17:46:50Z</time>
      </trkpt>
      <trkpt lat="59.974718720984" lon="17.745945612102">
        <ele>34.4</ele>
        <time>2014-08-29T17:46:51Z</time>
      </trkpt>
      <trkpt lat="59.974699442614" lon="17.745987353964">
        <ele>34.2</ele>
        <time>2014-08-29T17:46:52Z</time>
      </trkpt>
      <trkpt lat="59.974679745149" lon="17.74602708417">
        <ele>34.2</ele>
        <time>2014-08-29T17:46:53Z</time>
      </trkpt>
      <trkpt lat="59.97465954477" lon="17.746065221815">
        <ele>34.4</ele>
        <time>2014-08-29T17:46:54Z</time>
      </trkpt>
      <trkpt lat="59.974639931124" lon="17.746101012528">
        <ele>34.6</ele>
        <time>2014-08-29T17:46:55Z</time>
      </trkpt>
      <trkpt lat="59.974621742401" lon="17.746135713594">
        <ele>34.8</ele>
        <time>2014-08-29T17:46:56Z</time>
      </trkpt>
      <trkpt lat="59.974602966945" lon="17.746166642805">
        <ele>34.4</ele>
        <time>2014-08-29T17:46:57Z</time>
      </trkpt>
      <trkpt lat="59.974586706059" lon="17.746200086586">
        <ele>34.4</ele>
        <time>2014-08-29T17:46:58Z</time>
      </trkpt>
      <trkpt lat="59.974570026078" lon="17.746227998313">
        <ele>34.4</ele>
        <time>2014-08-29T17:46:59Z</time>
      </trkpt>
      <trkpt lat="59.974551502079" lon="17.746255574764">
        <ele>34.4</ele>
        <time>2014-08-29T17:47:00Z</time>
      </trkpt>
      <trkpt lat="59.9745313017" lon="17.746288347993">
        <ele>34.2</ele>
        <time>2014-08-29T17:47:01Z</time>
      </trkpt>
      <trkpt lat="59.974513280615" lon="17.74631877429">
        <ele>34.2</ele>
        <time>2014-08-29T17:47:02Z</time>
      </trkpt>
      <trkpt lat="59.974486961449" lon="17.746355319374">
        <ele>34.2</ele>
        <time>2014-08-29T17:47:03Z</time>
      </trkpt>
      <trkpt lat="59.974461564292" lon="17.746390439535">
        <ele>34.2</ele>
        <time>2014-08-29T17:47:04Z</time>
      </trkpt>
      <trkpt lat="59.974435831859" lon="17.746420530556">
        <ele>34</ele>
        <time>2014-08-29T17:47:05Z</time>
      </trkpt>
      <trkpt lat="59.974410015607" lon="17.746449364292">
        <ele>34</ele>
        <time>2014-08-29T17:47:06Z</time>
      </trkpt>
      <trkpt lat="59.974386630106" lon="17.746482556616">
        <ele>34</ele>
        <time>2014-08-29T17:47:07Z</time>
      </trkpt>
      <trkpt lat="59.974360562397" lon="17.746514407836">
        <ele>33.8</ele>
        <time>2014-08-29T17:47:08Z</time>
      </trkpt>
      <trkpt lat="59.974336673982" lon="17.746539050622">
        <ele>34</ele>
        <time>2014-08-29T17:47:09Z</time>
      </trkpt>
      <trkpt lat="59.974313037024" lon="17.746567968177">
        <ele>34.2</ele>
        <time>2014-08-29T17:47:10Z</time>
      </trkpt>
      <trkpt lat="59.974287136953" lon="17.74659621518">
        <ele>33.8</ele>
        <time>2014-08-29T17:47:11Z</time>
      </trkpt>
      <trkpt lat="59.974260650149" lon="17.746620857966">
        <ele>33.6</ele>
        <time>2014-08-29T17:47:12Z</time>
      </trkpt>
      <trkpt lat="59.97423542063" lon="17.746651200444">
        <ele>33.8</ele>
        <time>2014-08-29T17:47:13Z</time>
      </trkpt>
      <trkpt lat="59.974212538043" lon="17.746679028352">
        <ele>33.8</ele>
        <time>2014-08-29T17:47:14Z</time>
      </trkpt>
      <trkpt lat="59.974186470334" lon="17.746705347518">
        <ele>33.6</ele>
        <time>2014-08-29T17:47:15Z</time>
      </trkpt>
      <trkpt lat="59.974160318806" lon="17.746740802955">
        <ele>33.4</ele>
        <time>2014-08-29T17:47:16Z</time>
      </trkpt>
      <trkpt lat="59.974134418735" lon="17.746777012763">
        <ele>33.4</ele>
        <time>2014-08-29T17:47:17Z</time>
      </trkpt>
      <trkpt lat="59.974109775949" lon="17.746809618354">
        <ele>33.4</ele>
        <time>2014-08-29T17:47:18Z</time>
      </trkpt>
      <trkpt lat="59.97408454643" lon="17.746839206461">
        <ele>33.6</ele>
        <time>2014-08-29T17:47:19Z</time>
      </trkpt>
      <trkpt lat="59.974059568368" lon="17.746869968034">
        <ele>33.6</ele>
        <time>2014-08-29T17:47:20Z</time>
      </trkpt>
      <trkpt lat="59.97403425503" lon="17.746896873933">
        <ele>33.4</ele>
        <time>2014-08-29T17:47:21Z</time>
      </trkpt>
      <trkpt lat="59.974007349131" lon="17.746920343253">
        <ele>33.2</ele>
        <time>2014-08-29T17:47:22Z</time>
      </trkpt>
      <trkpt lat="59.973979185947" lon="17.746942639107">
        <ele>33.2</ele>
        <time>2014-08-29T17:47:23Z</time>
      </trkpt>
      <trkpt lat="59.973951693315" lon="17.746966527522">
        <ele>33</ele>
        <time>2014-08-29T17:47:24Z</time>
      </trkpt>
      <trkpt lat="59.973925877063" lon="17.746993852516">
        <ele>33</ele>
        <time>2014-08-29T17:47:25Z</time>
      </trkpt>
      <trkpt lat="59.973902072467" lon="17.747023440623">
        <ele>33.4</ele>
        <time>2014-08-29T17:47:26Z</time>
      </trkpt>
      <trkpt lat="59.973876423853" lon="17.747050262703">
        <ele>33.6</ele>
        <time>2014-08-29T17:47:27Z</time>
      </trkpt>
      <trkpt lat="59.97385069142" lon="17.74707985081">
        <ele>33.4</ele>
        <time>2014-08-29T17:47:28Z</time>
      </trkpt>
      <trkpt lat="59.973825126625" lon="17.747109271279">
        <ele>33.2</ele>
        <time>2014-08-29T17:47:29Z</time>
      </trkpt>
      <trkpt lat="59.973797214898" lon="17.747142295965">
        <ele>33.2</ele>
        <time>2014-08-29T17:47:30Z</time>
      </trkpt>
      <trkpt lat="59.97377106337" lon="17.747175236832">
        <ele>33.2</ele>
        <time>2014-08-29T17:47:31Z</time>
      </trkpt>
      <trkpt lat="59.97374424129" lon="17.747206836595">
        <ele>33.4</ele>
        <time>2014-08-29T17:47:32Z</time>
      </trkpt>
      <trkpt lat="59.973719849961" lon="17.747237849625">
        <ele>33.4</ele>
        <time>2014-08-29T17:47:33Z</time>
      </trkpt>
      <trkpt lat="59.97369478808" lon="17.747262995325">
        <ele>33.4</ele>
        <time>2014-08-29T17:47:34Z</time>
      </trkpt>
      <trkpt lat="59.97367131876" lon="17.747288308663">
        <ele>33.4</ele>
        <time>2014-08-29T17:47:35Z</time>
      </trkpt>
      <trkpt lat="59.973648184716" lon="17.747318567322">
        <ele>33.4</ele>
        <time>2014-08-29T17:47:36Z</time>
      </trkpt>
      <trkpt lat="59.973622536102" lon="17.747348490705">
        <ele>33.4</ele>
        <time>2014-08-29T17:47:37Z</time>
      </trkpt>
      <trkpt lat="59.973597474221" lon="17.74737740826">
        <ele>33</ele>
        <time>2014-08-29T17:47:38Z</time>
      </trkpt>
      <trkpt lat="59.973570484503" lon="17.747405990539">
        <ele>33</ele>
        <time>2014-08-29T17:47:39Z</time>
      </trkpt>
      <trkpt lat="59.97354642845" lon="17.74743440518">
        <ele>33.4</ele>
        <time>2014-08-29T17:47:40Z</time>
      </trkpt>
      <trkpt lat="59.973524300234" lon="17.747454102645">
        <ele>33.4</ele>
        <time>2014-08-29T17:47:41Z</time>
      </trkpt>
      <trkpt lat="59.973503596941" lon="17.747477488146">
        <ele>33</ele>
        <time>2014-08-29T17:47:42Z</time>
      </trkpt>
      <trkpt lat="59.973480379078" lon="17.747499867819">
        <ele>32.8</ele>
        <time>2014-08-29T17:47:43Z</time>
      </trkpt>
      <trkpt lat="59.973456406844" lon="17.747525264976">
        <ele>33</ele>
        <time>2014-08-29T17:47:44Z</time>
      </trkpt>
      <trkpt lat="59.973431847877" lon="17.74755091359">
        <ele>32.8</ele>
        <time>2014-08-29T17:47:45Z</time>
      </trkpt>
      <trkpt lat="59.973410390213" lon="17.747577065118">
        <ele>32.4</ele>
        <time>2014-08-29T17:47:46Z</time>
      </trkpt>
      <trkpt lat="59.973385831246" lon="17.747602294637">
        <ele>32.6</ele>
        <time>2014-08-29T17:47:47Z</time>
      </trkpt>
      <trkpt lat="59.973360266451" lon="17.747633978219">
        <ele>33</ele>
        <time>2014-08-29T17:47:48Z</time>
      </trkpt>
      <trkpt lat="59.973333947285" lon="17.747666416172">
        <ele>32.6</ele>
        <time>2014-08-29T17:47:49Z</time>
      </trkpt>
      <trkpt lat="59.973306957567" lon="17.747697177745">
        <ele>32.4</ele>
        <time>2014-08-29T17:47:50Z</time>
      </trkpt>
      <trkpt lat="59.973280219306" lon="17.747725927662">
        <ele>32.2</ele>
        <time>2014-08-29T17:47:51Z</time>
      </trkpt>
      <trkpt lat="59.973254654511" lon="17.747756102502">
        <ele>32.6</ele>
        <time>2014-08-29T17:47:52Z</time>
      </trkpt>
      <trkpt lat="59.97323043082" lon="17.747791809396">
        <ele>32.8</ele>
        <time>2014-08-29T17:47:53Z</time>
      </trkpt>
      <trkpt lat="59.973200926532" lon="17.747831036688">
        <ele>32.4</ele>
        <time>2014-08-29T17:47:54Z</time>
      </trkpt>
      <trkpt lat="59.973171841339" lon="17.74786523484">
        <ele>31.8</ele>
        <time>2014-08-29T17:47:55Z</time>
      </trkpt>
      <trkpt lat="59.973144600164" lon="17.747898343345">
        <ele>31.6</ele>
        <time>2014-08-29T17:47:56Z</time>
      </trkpt>
      <trkpt lat="59.973116856075" lon="17.747928685823">
        <ele>31.8</ele>
        <time>2014-08-29T17:47:57Z</time>
      </trkpt>
      <trkpt lat="59.973090369271" lon="17.747956681369">
        <ele>32.2</ele>
        <time>2014-08-29T17:47:58Z</time>
      </trkpt>
      <trkpt lat="59.973066061761" lon="17.747985682743">
        <ele>32.4</ele>
        <time>2014-08-29T17:47:59Z</time>
      </trkpt>
      <trkpt lat="59.973042257165" lon="17.74801443266">
        <ele>32.4</ele>
        <time>2014-08-29T17:48:00Z</time>
      </trkpt>
      <trkpt lat="59.973019793673" lon="17.74804879845">
        <ele>32</ele>
        <time>2014-08-29T17:48:01Z</time>
      </trkpt>
      <trkpt lat="59.972995821439" lon="17.748082577507">
        <ele>32</ele>
        <time>2014-08-29T17:48:02Z</time>
      </trkpt>
      <trkpt lat="59.972974028499" lon="17.748114847822">
        <ele>32.4</ele>
        <time>2014-08-29T17:48:03Z</time>
      </trkpt>
      <trkpt lat="59.972950810636" lon="17.748152063458">
        <ele>32.6</ele>
        <time>2014-08-29T17:48:04Z</time>
      </trkpt>
      <trkpt lat="59.972926922221" lon="17.748188859999">
        <ele>32.2</ele>
        <time>2014-08-29T17:48:05Z</time>
      </trkpt>
      <trkpt lat="59.972904458729" lon="17.748222555237">
        <ele>32</ele>
        <time>2014-08-29T17:48:06Z</time>
      </trkpt>
      <trkpt lat="59.972884090712" lon="17.748252143344">
        <ele>31.6</ele>
        <time>2014-08-29T17:48:07Z</time>
      </trkpt>
      <trkpt lat="59.972863135962" lon="17.748282066727">
        <ele>31.6</ele>
        <time>2014-08-29T17:48:08Z</time>
      </trkpt>
      <trkpt lat="59.972842181212" lon="17.748310984282">
        <ele>31.6</ele>
        <time>2014-08-29T17:48:09Z</time>
      </trkpt>
      <trkpt lat="59.972822986661" lon="17.748341913493">
        <ele>32</ele>
        <time>2014-08-29T17:48:10Z</time>
      </trkpt>
      <trkpt lat="59.972802031911" lon="17.748374519084">
        <ele>32.4</ele>
        <time>2014-08-29T17:48:11Z</time>
      </trkpt>
      <trkpt lat="59.972782166808" lon="17.748413578738">
        <ele>32.6</ele>
        <time>2014-08-29T17:48:12Z</time>
      </trkpt>
      <trkpt lat="59.972763810447" lon="17.748456829342">
        <ele>32.6</ele>
        <time>2014-08-29T17:48:13Z</time>
      </trkpt>
      <trkpt lat="59.972743023335" lon="17.748504689991">
        <ele>32.4</ele>
        <time>2014-08-29T17:48:14Z</time>
      </trkpt>
      <trkpt lat="59.972722990594" lon="17.748549700794">
        <ele>32.2</ele>
        <time>2014-08-29T17:48:15Z</time>
      </trkpt>
      <trkpt lat="59.972706059156" lon="17.748594041045">
        <ele>32.2</ele>
        <time>2014-08-29T17:48:16Z</time>
      </trkpt>
      <trkpt lat="59.972688540985" lon="17.748633938889">
        <ele>32.2</ele>
        <time>2014-08-29T17:48:17Z</time>
      </trkpt>
      <trkpt lat="59.97267303447" lon="17.748680542253">
        <ele>32.4</ele>
        <time>2014-08-29T17:48:18Z</time>
      </trkpt>
      <trkpt lat="59.972655264842" lon="17.748725385418">
        <ele>32.6</ele>
        <time>2014-08-29T17:48:19Z</time>
      </trkpt>
      <trkpt lat="59.972636573205" lon="17.748768384565">
        <ele>32.8</ele>
        <time>2014-08-29T17:48:20Z</time>
      </trkpt>
      <trkpt lat="59.972617211016" lon="17.748812054264">
        <ele>33.2</ele>
        <time>2014-08-29T17:48:21Z</time>
      </trkpt>
      <trkpt lat="59.972598184103" lon="17.74885513723">
        <ele>33.6</ele>
        <time>2014-08-29T17:48:22Z</time>
      </trkpt>
      <trkpt lat="59.972578402819" lon="17.748897382006">
        <ele>33.8</ele>
        <time>2014-08-29T17:48:23Z</time>
      </trkpt>
      <trkpt lat="59.972559795001" lon="17.74894063261">
        <ele>33.4</ele>
        <time>2014-08-29T17:48:24Z</time>
      </trkpt>
      <trkpt lat="59.972542360649" lon="17.748991091648">
        <ele>33.2</ele>
        <time>2014-08-29T17:48:25Z</time>
      </trkpt>
      <trkpt lat="59.972523249917" lon="17.749041047772">
        <ele>33</ele>
        <time>2014-08-29T17:48:26Z</time>
      </trkpt>
      <trkpt lat="59.972507491945" lon="17.749090836258">
        <ele>33.2</ele>
        <time>2014-08-29T17:48:27Z</time>
      </trkpt>
      <trkpt lat="59.972473796707" lon="17.749181779873">
        <ele>33.6</ele>
        <time>2014-08-29T17:48:29Z</time>
      </trkpt>
      <trkpt lat="59.972455021251" lon="17.749216564758">
        <ele>33.6</ele>
        <time>2014-08-29T17:48:30Z</time>
      </trkpt>
      <trkpt lat="59.972434317958" lon="17.749256462602">
        <ele>33.2</ele>
        <time>2014-08-29T17:48:31Z</time>
      </trkpt>
      <trkpt lat="59.972411351552" lon="17.749303485061">
        <ele>33</ele>
        <time>2014-08-29T17:48:32Z</time>
      </trkpt>
      <trkpt lat="59.972389893888" lon="17.749350758977">
        <ele>33</ele>
        <time>2014-08-29T17:48:33Z</time>
      </trkpt>
      <trkpt lat="59.972369944966" lon="17.749395685961">
        <ele>33</ele>
        <time>2014-08-29T17:48:34Z</time>
      </trkpt>
      <trkpt lat="59.972349912225" lon="17.749436338176">
        <ele>33.2</ele>
        <time>2014-08-29T17:48:35Z</time>
      </trkpt>
      <trkpt lat="59.972330969131" lon="17.749482690083">
        <ele>33.2</ele>
        <time>2014-08-29T17:48:36Z</time>
      </trkpt>
      <trkpt lat="59.972311187847" lon="17.749528287619">
        <ele>33.4</ele>
        <time>2014-08-29T17:48:37Z</time>
      </trkpt>
      <trkpt lat="59.972293082943" lon="17.749578746657">
        <ele>33.6</ele>
        <time>2014-08-29T17:48:38Z</time>
      </trkpt>
      <trkpt lat="59.972273469297" lon="17.749624511831">
        <ele>33.4</ele>
        <time>2014-08-29T17:48:39Z</time>
      </trkpt>
      <trkpt lat="59.972255951126" lon="17.749669606453">
        <ele>33</ele>
        <time>2014-08-29T17:48:40Z</time>
      </trkpt>
      <trkpt lat="59.972236672756" lon="17.749714533437">
        <ele>33</ele>
        <time>2014-08-29T17:48:41Z</time>
      </trkpt>
      <trkpt lat="59.972216975291" lon="17.749754263643">
        <ele>33</ele>
        <time>2014-08-29T17:48:42Z</time>
      </trkpt>
      <trkpt lat="59.972193422152" lon="17.749785109035">
        <ele>33.2</ele>
        <time>2014-08-29T17:48:43Z</time>
      </trkpt>
      <trkpt lat="59.972171713031" lon="17.749818888092">
        <ele>33.4</ele>
        <time>2014-08-29T17:48:44Z</time>
      </trkpt>
      <trkpt lat="59.972156374154" lon="17.749859121212">
        <ele>33.4</ele>
        <time>2014-08-29T17:48:45Z</time>
      </trkpt>
      <trkpt lat="59.97213994563" lon="17.749901282169">
        <ele>33.4</ele>
        <time>2014-08-29T17:48:46Z</time>
      </trkpt>
      <trkpt lat="59.972121421631" lon="17.749943191669">
        <ele>33.2</ele>
        <time>2014-08-29T17:48:47Z</time>
      </trkpt>
      <trkpt lat="59.972106501849" lon="17.749988789205">
        <ele>33.4</ele>
        <time>2014-08-29T17:48:48Z</time>
      </trkpt>
      <trkpt lat="59.972088229307" lon="17.750031369257">
        <ele>33.6</ele>
        <time>2014-08-29T17:48:49Z</time>
      </trkpt>
      <trkpt lat="59.972070543498" lon="17.750073278757">
        <ele>33.4</ele>
        <time>2014-08-29T17:48:50Z</time>
      </trkpt>
      <trkpt lat="59.972051600404" lon="17.750112506049">
        <ele>33.2</ele>
        <time>2014-08-29T17:48:51Z</time>
      </trkpt>
      <trkpt lat="59.972032741129" lon="17.750149386409">
        <ele>33.2</ele>
        <time>2014-08-29T17:48:52Z</time>
      </trkpt>
      <trkpt lat="59.972013462759" lon="17.750187440235">
        <ele>33.2</ele>
        <time>2014-08-29T17:48:53Z</time>
      </trkpt>
      <trkpt lat="59.971994184389" lon="17.750227086622">
        <ele>33.2</ele>
        <time>2014-08-29T17:48:54Z</time>
      </trkpt>
      <trkpt lat="59.971979432245" lon="17.750263044973">
        <ele>33</ele>
        <time>2014-08-29T17:48:55Z</time>
      </trkpt>
      <trkpt lat="59.971961327341" lon="17.750302104627">
        <ele>33</ele>
        <time>2014-08-29T17:48:56Z</time>
      </trkpt>
      <trkpt lat="59.971943976808" lon="17.750339906996">
        <ele>33</ele>
        <time>2014-08-29T17:48:57Z</time>
      </trkpt>
      <trkpt lat="59.971927213008" lon="17.750376703537">
        <ele>32.6</ele>
        <time>2014-08-29T17:48:58Z</time>
      </trkpt>
      <trkpt lat="59.971909108104" lon="17.750412326612">
        <ele>32.6</ele>
        <time>2014-08-29T17:48:59Z</time>
      </trkpt>
      <trkpt lat="59.971891087019" lon="17.750449793705">
        <ele>32.6</ele>
        <time>2014-08-29T17:49:00Z</time>
      </trkpt>
      <trkpt lat="59.971872395382" lon="17.750488937178">
        <ele>32.2</ele>
        <time>2014-08-29T17:49:01Z</time>
      </trkpt>
      <trkpt lat="59.97185412284" lon="17.750528415927">
        <ele>32.2</ele>
        <time>2014-08-29T17:49:02Z</time>
      </trkpt>
      <trkpt lat="59.971832497538" lon="17.750565547744">
        <ele>32.2</ele>
        <time>2014-08-29T17:49:03Z</time>
      </trkpt>
      <trkpt lat="59.971814308815" lon="17.750607708701">
        <ele>32</ele>
        <time>2014-08-29T17:49:04Z</time>
      </trkpt>
      <trkpt lat="59.971793270246" lon="17.750649366744">
        <ele>31.8</ele>
        <time>2014-08-29T17:49:05Z</time>
      </trkpt>
      <trkpt lat="59.971775500618" lon="17.750683481077">
        <ele>31.8</ele>
        <time>2014-08-29T17:49:06Z</time>
      </trkpt>
      <trkpt lat="59.971752198936" lon="17.750715667573">
        <ele>31.8</ele>
        <time>2014-08-29T17:49:07Z</time>
      </trkpt>
      <trkpt lat="59.971730825091" lon="17.750746345327">
        <ele>31.4</ele>
        <time>2014-08-29T17:49:08Z</time>
      </trkpt>
      <trkpt lat="59.971711379083" lon="17.750777609814">
        <ele>31.4</ele>
        <time>2014-08-29T17:49:09Z</time>
      </trkpt>
      <trkpt lat="59.971690759609" lon="17.750810802138">
        <ele>31.4</ele>
        <time>2014-08-29T17:49:10Z</time>
      </trkpt>
      <trkpt lat="59.971671984153" lon="17.75084500029">
        <ele>31.2</ele>
        <time>2014-08-29T17:49:11Z</time>
      </trkpt>
      <trkpt lat="59.97165379543" lon="17.750881964469">
        <ele>31</ele>
        <time>2014-08-29T17:49:12Z</time>
      </trkpt>
      <trkpt lat="59.971633092137" lon="17.750919096286">
        <ele>31.2</ele>
        <time>2014-08-29T17:49:13Z</time>
      </trkpt>
      <trkpt lat="59.971612053568" lon="17.750954970818">
        <ele>31</ele>
        <time>2014-08-29T17:49:14Z</time>
      </trkpt>
      <trkpt lat="59.971590428266" lon="17.750994030472">
        <ele>30.8</ele>
        <time>2014-08-29T17:49:15Z</time>
      </trkpt>
      <trkpt lat="59.971567629498" lon="17.751031749022">
        <ele>30.8</ele>
        <time>2014-08-29T17:49:16Z</time>
      </trkpt>
      <trkpt lat="59.971544160178" lon="17.751063181147">
        <ele>30.6</ele>
        <time>2014-08-29T17:49:17Z</time>
      </trkpt>
      <trkpt lat="59.97151968503" lon="17.751094529453">
        <ele>30.4</ele>
        <time>2014-08-29T17:49:18Z</time>
      </trkpt>
      <trkpt lat="59.971497724452" lon="17.751122189723">
        <ele>30.4</ele>
        <time>2014-08-29T17:49:19Z</time>
      </trkpt>
      <trkpt lat="59.971474841865" lon="17.751149179441">
        <ele>30.4</ele>
        <time>2014-08-29T17:49:20Z</time>
      </trkpt>
      <trkpt lat="59.971453216563" lon="17.751180863023">
        <ele>30.4</ele>
        <time>2014-08-29T17:49:21Z</time>
      </trkpt>
      <trkpt lat="59.971431172166" lon="17.751211037863">
        <ele>30</ele>
        <time>2014-08-29T17:49:22Z</time>
      </trkpt>
      <trkpt lat="59.971409379226" lon="17.75124314054">
        <ele>30</ele>
        <time>2014-08-29T17:49:23Z</time>
      </trkpt>
      <trkpt lat="59.971384904078" lon="17.751268453878">
        <ele>30</ele>
        <time>2014-08-29T17:49:24Z</time>
      </trkpt>
      <trkpt lat="59.971361099482" lon="17.751293599578">
        <ele>30</ele>
        <time>2014-08-29T17:49:25Z</time>
      </trkpt>
      <trkpt lat="59.971333690669" lon="17.751318996735">
        <ele>29.8</ele>
        <time>2014-08-29T17:49:26Z</time>
      </trkpt>
      <trkpt lat="59.971304940752" lon="17.751339197114">
        <ele>29.8</ele>
        <time>2014-08-29T17:49:27Z</time>
      </trkpt>
      <trkpt lat="59.971274346817" lon="17.751365432461">
        <ele>29.8</ele>
        <time>2014-08-29T17:49:28Z</time>
      </trkpt>
      <trkpt lat="59.971243836701" lon="17.751386973944">
        <ele>29.6</ele>
        <time>2014-08-29T17:49:29Z</time>
      </trkpt>
      <trkpt lat="59.971216008793" lon="17.751412957834">
        <ele>29.6</ele>
        <time>2014-08-29T17:49:30Z</time>
      </trkpt>
      <trkpt lat="59.971189102894" lon="17.751438187353">
        <ele>29.6</ele>
        <time>2014-08-29T17:49:31Z</time>
      </trkpt>
      <trkpt lat="59.971163538099" lon="17.751463081596">
        <ele>29.6</ele>
        <time>2014-08-29T17:49:32Z</time>
      </trkpt>
      <trkpt lat="59.971137554209" lon="17.751484874536">
        <ele>29.2</ele>
        <time>2014-08-29T17:49:33Z</time>
      </trkpt>
      <trkpt lat="59.971111151224" lon="17.751513708272">
        <ele>29.2</ele>
        <time>2014-08-29T17:49:34Z</time>
      </trkpt>
      <trkpt lat="59.971083323316" lon="17.751543883112">
        <ele>29.2</ele>
        <time>2014-08-29T17:49:35Z</time>
      </trkpt>
      <trkpt lat="59.971054405761" lon="17.75157506378">
        <ele>29.2</ele>
        <time>2014-08-29T17:49:36Z</time>
      </trkpt>
      <trkpt lat="59.971025488206" lon="17.751614039615">
        <ele>29.2</ele>
        <time>2014-08-29T17:49:37Z</time>
      </trkpt>
      <trkpt lat="59.970998833764" lon="17.751652344898">
        <ele>29</ele>
        <time>2014-08-29T17:49:38Z</time>
      </trkpt>
      <trkpt lat="59.970972179322" lon="17.751695595502">
        <ele>28.6</ele>
        <time>2014-08-29T17:49:39Z</time>
      </trkpt>
      <trkpt lat="59.97094971583" lon="17.751737421183">
        <ele>28.6</ele>
        <time>2014-08-29T17:49:40Z</time>
      </trkpt>
      <trkpt lat="59.970927252338" lon="17.751775558828">
        <ele>28.8</ele>
        <time>2014-08-29T17:49:41Z</time>
      </trkpt>
      <trkpt lat="59.970903699199" lon="17.751819228527">
        <ele>29</ele>
        <time>2014-08-29T17:49:42Z</time>
      </trkpt>
      <trkpt lat="59.970879894603" lon="17.751857449991">
        <ele>29</ele>
        <time>2014-08-29T17:49:43Z</time>
      </trkpt>
      <trkpt lat="59.970855084179" lon="17.751888882116">
        <ele>28.6</ele>
        <time>2014-08-29T17:49:44Z</time>
      </trkpt>
      <trkpt lat="59.970830189936" lon="17.751919308413">
        <ele>28.4</ele>
        <time>2014-08-29T17:49:45Z</time>
      </trkpt>
      <trkpt lat="59.970805295693" lon="17.751954344755">
        <ele>28.4</ele>
        <time>2014-08-29T17:49:46Z</time>
      </trkpt>
      <trkpt lat="59.970782580744" lon="17.751994242599">
        <ele>28.6</ele>
        <time>2014-08-29T17:49:47Z</time>
      </trkpt>
      <trkpt lat="59.970758776148" lon="17.752035062452">
        <ele>28.8</ele>
        <time>2014-08-29T17:49:48Z</time>
      </trkpt>
      <trkpt lat="59.970737318484" lon="17.752083174558">
        <ele>28.6</ele>
        <time>2014-08-29T17:49:49Z</time>
      </trkpt>
      <trkpt lat="59.970717201924" lon="17.75212240185">
        <ele>28.4</ele>
        <time>2014-08-29T17:49:50Z</time>
      </trkpt>
      <trkpt lat="59.970699851391" lon="17.752160790952">
        <ele>28.4</ele>
        <time>2014-08-29T17:49:51Z</time>
      </trkpt>
      <trkpt lat="59.970682417039" lon="17.752196833122">
        <ele>28.6</ele>
        <time>2014-08-29T17:49:52Z</time>
      </trkpt>
      <trkpt lat="59.97066473123" lon="17.752239496993">
        <ele>28.6</ele>
        <time>2014-08-29T17:49:53Z</time>
      </trkpt>
      <trkpt lat="59.970645117584" lon="17.752274784792">
        <ele>28.2</ele>
        <time>2014-08-29T17:49:54Z</time>
      </trkpt>
      <trkpt lat="59.970623827558" lon="17.752312587161">
        <ele>28.2</ele>
        <time>2014-08-29T17:49:55Z</time>
      </trkpt>
      <trkpt lat="59.97061108707" lon="17.752349970435">
        <ele>28.4</ele>
        <time>2014-08-29T17:49:56Z</time>
      </trkpt>
      <trkpt lat="59.970587114836" lon="17.752391963754">
        <ele>28.8</ele>
        <time>2014-08-29T17:49:57Z</time>
      </trkpt>
      <trkpt lat="59.970571189226" lon="17.752432615969">
        <ele>28.6</ele>
        <time>2014-08-29T17:49:58Z</time>
      </trkpt>
      <trkpt lat="59.970555179797" lon="17.75247276527">
        <ele>28.4</ele>
        <time>2014-08-29T17:49:59Z</time>
      </trkpt>
      <trkpt lat="59.970543948051" lon="17.752516937883">
        <ele>28.2</ele>
        <time>2014-08-29T17:50:00Z</time>
      </trkpt>
      <trkpt lat="59.970527435708" lon="17.752552141863">
        <ele>28.2</ele>
        <time>2014-08-29T17:50:01Z</time>
      </trkpt>
      <trkpt lat="59.970511258641" lon="17.752587932576">
        <ele>28.4</ele>
        <time>2014-08-29T17:50:02Z</time>
      </trkpt>
      <trkpt lat="59.970492818461" lon="17.752627327506">
        <ele>28.6</ele>
        <time>2014-08-29T17:50:03Z</time>
      </trkpt>
      <trkpt lat="59.970478820688" lon="17.752668817911">
        <ele>28.6</ele>
        <time>2014-08-29T17:50:04Z</time>
      </trkpt>
      <trkpt lat="59.970464655277" lon="17.752717013836">
        <ele>28.4</ele>
        <time>2014-08-29T17:50:05Z</time>
      </trkpt>
      <trkpt lat="59.970450908961" lon="17.752767221417">
        <ele>28.4</ele>
        <time>2014-08-29T17:50:06Z</time>
      </trkpt>
      <trkpt lat="59.970437330283" lon="17.752817764274">
        <ele>28.6</ele>
        <time>2014-08-29T17:50:07Z</time>
      </trkpt>
      <trkpt lat="59.970419309198" lon="17.752862355982">
        <ele>28.8</ele>
        <time>2014-08-29T17:50:08Z</time>
      </trkpt>
      <trkpt lat="59.970402545398" lon="17.752908875527">
        <ele>28.8</ele>
        <time>2014-08-29T17:50:09Z</time>
      </trkpt>
      <trkpt lat="59.970384859589" lon="17.752957155271">
        <ele>28.6</ele>
        <time>2014-08-29T17:50:10Z</time>
      </trkpt>
      <trkpt lat="59.970370694178" lon="17.753007614309">
        <ele>28.4</ele>
        <time>2014-08-29T17:50:11Z</time>
      </trkpt>
      <trkpt lat="59.970348565962" lon="17.753053882397">
        <ele>28.6</ele>
        <time>2014-08-29T17:50:12Z</time>
      </trkpt>
      <trkpt lat="59.970326856841" lon="17.75309637863">
        <ele>28.6</ele>
        <time>2014-08-29T17:50:13Z</time>
      </trkpt>
      <trkpt lat="59.970305650634" lon="17.753138874863">
        <ele>28.8</ele>
        <time>2014-08-29T17:50:14Z</time>
      </trkpt>
      <trkpt lat="59.970287629549" lon="17.753181287277">
        <ele>29</ele>
        <time>2014-08-29T17:50:15Z</time>
      </trkpt>
      <trkpt lat="59.970269859921" lon="17.753223699691">
        <ele>28.6</ele>
        <time>2014-08-29T17:50:16Z</time>
      </trkpt>
      <trkpt lat="59.970254940139" lon="17.753268375218">
        <ele>28.4</ele>
        <time>2014-08-29T17:50:17Z</time>
      </trkpt>
      <trkpt lat="59.970239433624" lon="17.753311877279">
        <ele>28.4</ele>
        <time>2014-08-29T17:50:18Z</time>
      </trkpt>
      <trkpt lat="59.9702230051" lon="17.753359737928">
        <ele>28.6</ele>
        <time>2014-08-29T17:50:19Z</time>
      </trkpt>
      <trkpt lat="59.970205738386" lon="17.753405335464">
        <ele>28.8</ele>
        <time>2014-08-29T17:50:20Z</time>
      </trkpt>
      <trkpt lat="59.970188890767" lon="17.753452274104">
        <ele>29</ele>
        <time>2014-08-29T17:50:21Z</time>
      </trkpt>
      <trkpt lat="59.97017439008" lon="17.753498877468">
        <ele>29</ele>
        <time>2014-08-29T17:50:22Z</time>
      </trkpt>
      <trkpt lat="59.970160224669" lon="17.753548665954">
        <ele>28.6</ele>
        <time>2014-08-29T17:50:23Z</time>
      </trkpt>
      <trkpt lat="59.970144550516" lon="17.753596275146">
        <ele>28.4</ele>
        <time>2014-08-29T17:50:24Z</time>
      </trkpt>
      <trkpt lat="59.970125607422" lon="17.753643968157">
        <ele>28.4</ele>
        <time>2014-08-29T17:50:25Z</time>
      </trkpt>
      <trkpt lat="59.970107586337" lon="17.753689062779">
        <ele>28.4</ele>
        <time>2014-08-29T17:50:26Z</time>
      </trkpt>
      <trkpt lat="59.970090990175" lon="17.753737677799">
        <ele>28.4</ele>
        <time>2014-08-29T17:50:27Z</time>
      </trkpt>
      <trkpt lat="59.970073891099" lon="17.753783778249">
        <ele>28.6</ele>
        <time>2014-08-29T17:50:28Z</time>
      </trkpt>
      <trkpt lat="59.970055283281" lon="17.753828789052">
        <ele>28.8</ele>
        <time>2014-08-29T17:50:29Z</time>
      </trkpt>
      <trkpt lat="59.970036424006" lon="17.753872794027">
        <ele>29</ele>
        <time>2014-08-29T17:50:30Z</time>
      </trkpt>
      <trkpt lat="59.970017397093" lon="17.753912859509">
        <ele>29</ele>
        <time>2014-08-29T17:50:31Z</time>
      </trkpt>
      <trkpt lat="59.969996777619" lon="17.753955188104">
        <ele>28.8</ele>
        <time>2014-08-29T17:50:32Z</time>
      </trkpt>
      <trkpt lat="59.969976996335" lon="17.75399659469">
        <ele>28.8</ele>
        <time>2014-08-29T17:50:33Z</time>
      </trkpt>
      <trkpt lat="59.969957131232" lon="17.754037666">
        <ele>29</ele>
        <time>2014-08-29T17:50:34Z</time>
      </trkpt>
      <trkpt lat="59.969939110147" lon="17.754078904948">
        <ele>29.2</ele>
        <time>2014-08-29T17:50:35Z</time>
      </trkpt>
      <trkpt lat="59.969923268356" lon="17.754118299878">
        <ele>29</ele>
        <time>2014-08-29T17:50:36Z</time>
      </trkpt>
      <trkpt lat="59.969906504556" lon="17.754160712292">
        <ele>29</ele>
        <time>2014-08-29T17:50:37Z</time>
      </trkpt>
      <trkpt lat="59.969886220358" lon="17.754203459982">
        <ele>29</ele>
        <time>2014-08-29T17:50:38Z</time>
      </trkpt>
      <trkpt lat="59.969866858169" lon="17.754247129681">
        <ele>29.4</ele>
        <time>2014-08-29T17:50:39Z</time>
      </trkpt>
      <trkpt lat="59.969847998894" lon="17.754290296466">
        <ele>29.4</ele>
        <time>2014-08-29T17:50:40Z</time>
      </trkpt>
      <trkpt lat="59.969827463239" lon="17.754327512102">
        <ele>29.2</ele>
        <time>2014-08-29T17:50:41Z</time>
      </trkpt>
      <trkpt lat="59.969808436326" lon="17.754364643919">
        <ele>29</ele>
        <time>2014-08-29T17:50:42Z</time>
      </trkpt>
      <trkpt lat="59.969787565395" lon="17.754406553419">
        <ele>29.2</ele>
        <time>2014-08-29T17:50:43Z</time>
      </trkpt>
      <trkpt lat="59.969768622301" lon="17.754448462919">
        <ele>29.4</ele>
        <time>2014-08-29T17:50:44Z</time>
      </trkpt>
      <trkpt lat="59.969747164637" lon="17.754492467894">
        <ele>29.6</ele>
        <time>2014-08-29T17:50:45Z</time>
      </trkpt>
      <trkpt lat="59.969722940946" lon="17.754532784833">
        <ele>29.4</ele>
        <time>2014-08-29T17:50:46Z</time>
      </trkpt>
      <trkpt lat="59.969701231825" lon="17.754572179763">
        <ele>29.4</ele>
        <time>2014-08-29T17:50:47Z</time>
      </trkpt>
      <trkpt lat="59.969682875464" lon="17.75461434072">
        <ele>29.4</ele>
        <time>2014-08-29T17:50:48Z</time>
      </trkpt>
      <trkpt lat="59.969662172171" lon="17.754654741478">
        <ele>29.4</ele>
        <time>2014-08-29T17:50:49Z</time>
      </trkpt>
      <trkpt lat="59.969640211593" lon="17.754689945458">
        <ele>29.4</ele>
        <time>2014-08-29T17:50:50Z</time>
      </trkpt>
      <trkpt lat="59.969618083377" lon="17.754727077275">
        <ele>29.6</ele>
        <time>2014-08-29T17:50:51Z</time>
      </trkpt>
      <trkpt lat="59.969596122799" lon="17.754764209092">
        <ele>29.6</ele>
        <time>2014-08-29T17:50:52Z</time>
      </trkpt>
      <trkpt lat="59.969572318203" lon="17.754802849651">
        <ele>29.4</ele>
        <time>2014-08-29T17:50:53Z</time>
      </trkpt>
      <trkpt lat="59.969550609082" lon="17.754842160762">
        <ele>29.2</ele>
        <time>2014-08-29T17:50:54Z</time>
      </trkpt>
      <trkpt lat="59.969530408703" lon="17.754880968959">
        <ele>29.2</ele>
        <time>2014-08-29T17:50:55Z</time>
      </trkpt>
      <trkpt lat="59.969507442297" lon="17.754917933138">
        <ele>29.4</ele>
        <time>2014-08-29T17:50:56Z</time>
      </trkpt>
      <trkpt lat="59.969485481719" lon="17.754956825154">
        <ele>29.4</ele>
        <time>2014-08-29T17:50:57Z</time>
      </trkpt>
      <trkpt lat="59.969466287168" lon="17.754997477369">
        <ele>29.4</ele>
        <time>2014-08-29T17:50:58Z</time>
      </trkpt>
      <trkpt lat="59.969447930807" lon="17.755034776824">
        <ele>29.2</ele>
        <time>2014-08-29T17:50:59Z</time>
      </trkpt>
      <trkpt lat="59.969428484799" lon="17.755072243917">
        <ele>29.4</ele>
        <time>2014-08-29T17:51:00Z</time>
      </trkpt>
      <trkpt lat="59.969411385723" lon="17.755114237236">
        <ele>29.4</ele>
        <time>2014-08-29T17:51:01Z</time>
      </trkpt>
      <trkpt lat="59.969393616095" lon="17.755156062917">
        <ele>29.4</ele>
        <time>2014-08-29T17:51:02Z</time>
      </trkpt>
      <trkpt lat="59.96937308044" lon="17.755190680164">
        <ele>29.2</ele>
        <time>2014-08-29T17:51:03Z</time>
      </trkpt>
      <trkpt lat="59.969353550613" lon="17.755230494189">
        <ele>29.2</ele>
        <time>2014-08-29T17:51:04Z</time>
      </trkpt>
      <trkpt lat="59.969334356062" lon="17.755271565499">
        <ele>29.4</ele>
        <time>2014-08-29T17:51:05Z</time>
      </trkpt>
      <trkpt lat="59.969315748244" lon="17.755309367868">
        <ele>29.4</ele>
        <time>2014-08-29T17:51:06Z</time>
      </trkpt>
      <trkpt lat="59.969296888969" lon="17.755348762798">
        <ele>29.2</ele>
        <time>2014-08-29T17:51:07Z</time>
      </trkpt>
      <trkpt lat="59.969276018038" lon="17.755389582651">
        <ele>29.2</ele>
        <time>2014-08-29T17:51:08Z</time>
      </trkpt>
      <trkpt lat="59.969253889822" lon="17.755430318685">
        <ele>29.2</ele>
        <time>2014-08-29T17:51:09Z</time>
      </trkpt>
      <trkpt lat="59.969233437986" lon="17.755474156022">
        <ele>29.2</ele>
        <time>2014-08-29T17:51:10Z</time>
      </trkpt>
      <trkpt lat="59.969213991978" lon="17.755516484617">
        <ele>29.4</ele>
        <time>2014-08-29T17:51:11Z</time>
      </trkpt>
      <trkpt lat="59.969193791599" lon="17.755557807384">
        <ele>29.6</ele>
        <time>2014-08-29T17:51:12Z</time>
      </trkpt>
      <trkpt lat="59.969174848505" lon="17.755598627237">
        <ele>29.4</ele>
        <time>2014-08-29T17:51:13Z</time>
      </trkpt>
      <trkpt lat="59.969156743601" lon="17.755643302764">
        <ele>29.4</ele>
        <time>2014-08-29T17:51:14Z</time>
      </trkpt>
      <trkpt lat="59.969138303421" lon="17.755684038798">
        <ele>29.4</ele>
        <time>2014-08-29T17:51:15Z</time>
      </trkpt>
      <trkpt lat="59.969118857413" lon="17.755726702669">
        <ele>29.8</ele>
        <time>2014-08-29T17:51:16Z</time>
      </trkpt>
      <trkpt lat="59.969101842156" lon="17.755771126739">
        <ele>30</ele>
        <time>2014-08-29T17:51:17Z</time>
      </trkpt>
      <trkpt lat="59.969087509107" lon="17.755814964076">
        <ele>29.8</ele>
        <time>2014-08-29T17:51:18Z</time>
      </trkpt>
      <trkpt lat="59.969072505506" lon="17.755862489449">
        <ele>29.8</ele>
        <time>2014-08-29T17:51:19Z</time>
      </trkpt>
      <trkpt lat="59.969058423914" lon="17.755913451401">
        <ele>29.8</ele>
        <time>2014-08-29T17:51:20Z</time>
      </trkpt>
      <trkpt lat="59.969035708965" lon="17.755899369809">
        <ele>29.8</ele>
        <time>2014-08-29T17:51:21Z</time>
      </trkpt>
      <trkpt lat="59.969034284042" lon="17.755840361233">
        <ele>30</ele>
        <time>2014-08-29T17:51:22Z</time>
      </trkpt>
      <trkpt lat="59.969045851064" lon="17.755780765924">
        <ele>30</ele>
        <time>2014-08-29T17:51:23Z</time>
      </trkpt>
      <trkpt lat="59.969062279588" lon="17.755726870307">
        <ele>29.8</ele>
        <time>2014-08-29T17:51:24Z</time>
      </trkpt>
      <trkpt lat="59.969081138863" lon="17.755680350762">
        <ele>29.4</ele>
        <time>2014-08-29T17:51:25Z</time>
      </trkpt>
      <trkpt lat="59.969099411405" lon="17.755633831217">
        <ele>29.6</ele>
        <time>2014-08-29T17:51:26Z</time>
      </trkpt>
      <trkpt lat="59.969120952888" lon="17.755591251165">
        <ele>29.8</ele>
        <time>2014-08-29T17:51:27Z</time>
      </trkpt>
      <trkpt lat="59.969141320905" lon="17.755548838751">
        <ele>29.6</ele>
        <time>2014-08-29T17:51:28Z</time>
      </trkpt>
      <trkpt lat="59.969161772741" lon="17.755505252871">
        <ele>29.4</ele>
        <time>2014-08-29T17:51:29Z</time>
      </trkpt>
      <trkpt lat="59.96918281131" lon="17.755463343371">
        <ele>29.4</ele>
        <time>2014-08-29T17:51:30Z</time>
      </trkpt>
      <trkpt lat="59.96920376606" lon="17.755420763319">
        <ele>29.6</ele>
        <time>2014-08-29T17:51:31Z</time>
      </trkpt>
      <trkpt lat="59.969223463525" lon="17.755380614018">
        <ele>29.4</ele>
        <time>2014-08-29T17:51:32Z</time>
      </trkpt>
      <trkpt lat="59.969244921189" lon="17.755339207432">
        <ele>29.2</ele>
        <time>2014-08-29T17:51:33Z</time>
      </trkpt>
      <trkpt lat="59.969265959758" lon="17.755293442258">
        <ele>29</ele>
        <time>2014-08-29T17:51:34Z</time>
      </trkpt>
      <trkpt lat="59.969285154309" lon="17.755249102007">
        <ele>29.4</ele>
        <time>2014-08-29T17:51:35Z</time>
      </trkpt>
      <trkpt lat="59.969304600317" lon="17.755203504471">
        <ele>29.4</ele>
        <time>2014-08-29T17:51:36Z</time>
      </trkpt>
      <trkpt lat="59.969324381601" lon="17.755157990754">
        <ele>29</ele>
        <time>2014-08-29T17:51:37Z</time>
      </trkpt>
      <trkpt lat="59.969343492333" lon="17.755110297743">
        <ele>28.8</ele>
        <time>2014-08-29T17:51:38Z</time>
      </trkpt>
      <trkpt lat="59.969363189798" lon="17.755066292768">
        <ele>29</ele>
        <time>2014-08-29T17:51:39Z</time>
      </trkpt>
      <trkpt lat="59.969382468168" lon="17.755022790707">
        <ele>29</ele>
        <time>2014-08-29T17:51:40Z</time>
      </trkpt>
      <trkpt lat="59.969401495081" lon="17.754979707741">
        <ele>29.2</ele>
        <time>2014-08-29T17:51:41Z</time>
      </trkpt>
      <trkpt lat="59.969421611641" lon="17.754938971707">
        <ele>29</ele>
        <time>2014-08-29T17:51:42Z</time>
      </trkpt>
      <trkpt lat="59.969441644382" lon="17.754898570949">
        <ele>29</ele>
        <time>2014-08-29T17:51:43Z</time>
      </trkpt>
      <trkpt lat="59.969462180037" lon="17.754856661449">
        <ele>29.2</ele>
        <time>2014-08-29T17:51:44Z</time>
      </trkpt>
      <trkpt lat="59.96948204514" lon="17.754814081397">
        <ele>29.4</ele>
        <time>2014-08-29T17:51:45Z</time>
      </trkpt>
      <trkpt lat="59.969500652958" lon="17.754773764458">
        <ele>29.6</ele>
        <time>2014-08-29T17:51:46Z</time>
      </trkpt>
      <trkpt lat="59.969521188613" lon="17.754731268225">
        <ele>29.2</ele>
        <time>2014-08-29T17:51:47Z</time>
      </trkpt>
      <trkpt lat="59.969541221354" lon="17.754691370381">
        <ele>29.2</ele>
        <time>2014-08-29T17:51:48Z</time>
      </trkpt>
      <trkpt lat="59.969561254095" lon="17.754655831125">
        <ele>29.2</ele>
        <time>2014-08-29T17:51:49Z</time>
      </trkpt>
      <trkpt lat="59.969580783922" lon="17.754620040412">
        <ele>29.2</ele>
        <time>2014-08-29T17:51:50Z</time>
      </trkpt>
      <trkpt lat="59.969600062292" lon="17.754582824776">
        <ele>29</ele>
        <time>2014-08-29T17:51:51Z</time>
      </trkpt>
      <trkpt lat="59.969620597947" lon="17.754541334371">
        <ele>29</ele>
        <time>2014-08-29T17:51:52Z</time>
      </trkpt>
      <trkpt lat="59.969637697023" lon="17.75450034688">
        <ele>29</ele>
        <time>2014-08-29T17:51:53Z</time>
      </trkpt>
      <trkpt lat="59.969655885746" lon="17.754456090448">
        <ele>29</ele>
        <time>2014-08-29T17:51:54Z</time>
      </trkpt>
      <trkpt lat="59.969673571555" lon="17.754410409093">
        <ele>29.2</ele>
        <time>2014-08-29T17:51:55Z</time>
      </trkpt>
      <trkpt lat="59.969690502993" lon="17.754367493765">
        <ele>29.2</ele>
        <time>2014-08-29T17:51:56Z</time>
      </trkpt>
      <trkpt lat="59.969706931517" lon="17.75432516517">
        <ele>29</ele>
        <time>2014-08-29T17:51:57Z</time>
      </trkpt>
      <trkpt lat="59.969723779136" lon="17.754282836575">
        <ele>29</ele>
        <time>2014-08-29T17:51:58Z</time>
      </trkpt>
      <trkpt lat="59.969742303135" lon="17.754240256523">
        <ele>29.2</ele>
        <time>2014-08-29T17:51:59Z</time>
      </trkpt>
      <trkpt lat="59.969761330048" lon="17.754199688127">
        <ele>29.2</ele>
        <time>2014-08-29T17:52:00Z</time>
      </trkpt>
      <trkpt lat="59.969780356961" lon="17.754164903242">
        <ele>29</ele>
        <time>2014-08-29T17:52:01Z</time>
      </trkpt>
      <trkpt lat="59.96979888096" lon="17.754125843588">
        <ele>28.8</ele>
        <time>2014-08-29T17:52:02Z</time>
      </trkpt>
      <trkpt lat="59.969816231493" lon="17.754084939916">
        <ele>29</ele>
        <time>2014-08-29T17:52:03Z</time>
      </trkpt>
      <trkpt lat="59.969833498207" lon="17.75404353333">
        <ele>28.8</ele>
        <time>2014-08-29T17:52:04Z</time>
      </trkpt>
      <trkpt lat="59.96985252512" lon="17.754002378201">
        <ele>28.6</ele>
        <time>2014-08-29T17:52:05Z</time>
      </trkpt>
      <trkpt lat="59.969870462386" lon="17.753964575832">
        <ele>28.6</ele>
        <time>2014-08-29T17:52:06Z</time>
      </trkpt>
      <trkpt lat="59.969889908394" lon="17.753924258893">
        <ele>28.8</ele>
        <time>2014-08-29T17:52:07Z</time>
      </trkpt>
      <trkpt lat="59.969909102945" lon="17.753880337737">
        <ele>28.8</ele>
        <time>2014-08-29T17:52:08Z</time>
      </trkpt>
      <trkpt lat="59.96992712403" lon="17.753834572563">
        <ele>28.6</ele>
        <time>2014-08-29T17:52:09Z</time>
      </trkpt>
      <trkpt lat="59.969946318581" lon="17.753791908692">
        <ele>28.6</ele>
        <time>2014-08-29T17:52:10Z</time>
      </trkpt>
      <trkpt lat="59.969964423485" lon="17.75375100502">
        <ele>28.8</ele>
        <time>2014-08-29T17:52:11Z</time>
      </trkpt>
      <trkpt lat="59.969982528389" lon="17.753710268986">
        <ele>28.8</ele>
        <time>2014-08-29T17:52:12Z</time>
      </trkpt>
      <trkpt lat="59.970000298017" lon="17.753670454961">
        <ele>28.6</ele>
        <time>2014-08-29T17:52:13Z</time>
      </trkpt>
      <trkpt lat="59.970018235283" lon="17.753629383651">
        <ele>28.4</ele>
        <time>2014-08-29T17:52:14Z</time>
      </trkpt>
      <trkpt lat="59.970036340187" lon="17.753585378676">
        <ele>28.6</ele>
        <time>2014-08-29T17:52:15Z</time>
      </trkpt>
      <trkpt lat="59.97005452891" lon="17.753540870787">
        <ele>28.8</ele>
        <time>2014-08-29T17:52:16Z</time>
      </trkpt>
      <trkpt lat="59.970073639642" lon="17.753493261595">
        <ele>28.8</ele>
        <time>2014-08-29T17:52:17Z</time>
      </trkpt>
      <trkpt lat="59.970092666555" lon="17.753451519733">
        <ele>28.6</ele>
        <time>2014-08-29T17:52:18Z</time>
      </trkpt>
      <trkpt lat="59.970110520002" lon="17.753406341292">
        <ele>28.4</ele>
        <time>2014-08-29T17:52:19Z</time>
      </trkpt>
      <trkpt lat="59.970127702897" lon="17.753363006869">
        <ele>28.2</ele>
        <time>2014-08-29T17:52:20Z</time>
      </trkpt>
      <trkpt lat="59.970144634335" lon="17.753319420989">
        <ele>28.4</ele>
        <time>2014-08-29T17:52:21Z</time>
      </trkpt>
      <trkpt lat="59.97016014085" lon="17.753273991091">
        <ele>28.6</ele>
        <time>2014-08-29T17:52:22Z</time>
      </trkpt>
      <trkpt lat="59.970174222442" lon="17.753227806822">
        <ele>28.4</ele>
        <time>2014-08-29T17:52:23Z</time>
      </trkpt>
      <trkpt lat="59.970191908251" lon="17.753183718028">
        <ele>28.2</ele>
        <time>2014-08-29T17:52:24Z</time>
      </trkpt>
      <trkpt lat="59.970209426422" lon="17.753143065813">
        <ele>28.2</ele>
        <time>2014-08-29T17:52:25Z</time>
      </trkpt>
      <trkpt lat="59.970226609317" lon="17.753095205164">
        <ele>28.4</ele>
        <time>2014-08-29T17:52:26Z</time>
      </trkpt>
      <trkpt lat="59.970244630402" lon="17.7530486018">
        <ele>28.8</ele>
        <time>2014-08-29T17:52:27Z</time>
      </trkpt>
      <trkpt lat="59.970262902944" lon="17.753000405875">
        <ele>28.8</ele>
        <time>2014-08-29T17:52:28Z</time>
      </trkpt>
      <trkpt lat="59.97028084021" lon="17.752951707036">
        <ele>28.6</ele>
        <time>2014-08-29T17:52:29Z</time>
      </trkpt>
      <trkpt lat="59.970298861295" lon="17.752906360957">
        <ele>28.4</ele>
        <time>2014-08-29T17:52:30Z</time>
      </trkpt>
      <trkpt lat="59.970320151321" lon="17.752861014878">
        <ele>28</ele>
        <time>2014-08-29T17:52:31Z</time>
      </trkpt>
      <trkpt lat="59.970340267881" lon="17.752820530301">
        <ele>27.6</ele>
        <time>2014-08-29T17:52:32Z</time>
      </trkpt>
      <trkpt lat="59.970359546251" lon="17.75278121919">
        <ele>27.8</ele>
        <time>2014-08-29T17:52:33Z</time>
      </trkpt>
      <trkpt lat="59.970378405526" lon="17.752744590287">
        <ele>27.8</ele>
        <time>2014-08-29T17:52:34Z</time>
      </trkpt>
      <trkpt lat="59.970395923697" lon="17.752704692443">
        <ele>28</ele>
        <time>2014-08-29T17:52:35Z</time>
      </trkpt>
      <trkpt lat="59.970418554827" lon="17.752667057712">
        <ele>28.4</ele>
        <time>2014-08-29T17:52:36Z</time>
      </trkpt>
      <trkpt lat="59.970435234808" lon="17.752624310022">
        <ele>28.6</ele>
        <time>2014-08-29T17:52:37Z</time>
      </trkpt>
      <trkpt lat="59.970451076599" lon="17.752580137409">
        <ele>28.2</ele>
        <time>2014-08-29T17:52:38Z</time>
      </trkpt>
      <trkpt lat="59.970467672761" lon="17.752536551529">
        <ele>28</ele>
        <time>2014-08-29T17:52:39Z</time>
      </trkpt>
      <trkpt lat="59.97048368219" lon="17.752492127459">
        <ele>28</ele>
        <time>2014-08-29T17:52:40Z</time>
      </trkpt>
      <trkpt lat="59.970501367999" lon="17.752449044493">
        <ele>28.4</ele>
        <time>2014-08-29T17:52:41Z</time>
      </trkpt>
      <trkpt lat="59.970515365772" lon="17.752404201328">
        <ele>28.6</ele>
        <time>2014-08-29T17:52:42Z</time>
      </trkpt>
      <trkpt lat="59.970535817608" lon="17.752363381475">
        <ele>28.6</ele>
        <time>2014-08-29T17:52:43Z</time>
      </trkpt>
      <trkpt lat="59.970554173969" lon="17.752320717604">
        <ele>28.2</ele>
        <time>2014-08-29T17:52:44Z</time>
      </trkpt>
      <trkpt lat="59.970570686312" lon="17.752276544991">
        <ele>28.2</ele>
        <time>2014-08-29T17:52:45Z</time>
      </trkpt>
      <trkpt lat="59.970587282474" lon="17.752234551672">
        <ele>28.2</ele>
        <time>2014-08-29T17:52:46Z</time>
      </trkpt>
      <trkpt lat="59.970604884464" lon="17.752195994932">
        <ele>28.4</ele>
        <time>2014-08-29T17:52:47Z</time>
      </trkpt>
      <trkpt lat="59.970622067359" lon="17.75215592945">
        <ele>28.6</ele>
        <time>2014-08-29T17:52:48Z</time>
      </trkpt>
      <trkpt lat="59.970638244426" lon="17.752114606683">
        <ele>28.4</ele>
        <time>2014-08-29T17:52:49Z</time>
      </trkpt>
      <trkpt lat="59.970657019882" lon="17.752074373563">
        <ele>28.2</ele>
        <time>2014-08-29T17:52:50Z</time>
      </trkpt>
      <trkpt lat="59.970676549709" lon="17.752037325565">
        <ele>28</ele>
        <time>2014-08-29T17:52:51Z</time>
      </trkpt>
      <trkpt lat="59.970694822251" lon="17.75199834973">
        <ele>28.2</ele>
        <time>2014-08-29T17:52:52Z</time>
      </trkpt>
      <trkpt lat="59.970714854992" lon="17.75196063118">
        <ele>28.4</ele>
        <time>2014-08-29T17:52:53Z</time>
      </trkpt>
      <trkpt lat="59.970736061199" lon="17.751925259562">
        <ele>28.8</ele>
        <time>2014-08-29T17:52:54Z</time>
      </trkpt>
      <trkpt lat="59.970757435044" lon="17.751890642315">
        <ele>28.6</ele>
        <time>2014-08-29T17:52:55Z</time>
      </trkpt>
      <trkpt lat="59.97077872507" lon="17.751856444163">
        <ele>28.4</ele>
        <time>2014-08-29T17:52:56Z</time>
      </trkpt>
      <trkpt lat="59.970800434191" lon="17.751819228527">
        <ele>28.4</ele>
        <time>2014-08-29T17:52:57Z</time>
      </trkpt>
      <trkpt lat="59.970821724217" lon="17.751781509977">
        <ele>28.6</ele>
        <time>2014-08-29T17:52:58Z</time>
      </trkpt>
      <trkpt lat="59.970844187709" lon="17.751749239662">
        <ele>28.8</ele>
        <time>2014-08-29T17:52:59Z</time>
      </trkpt>
      <trkpt lat="59.970866315925" lon="17.751711856388">
        <ele>29</ele>
        <time>2014-08-29T17:53:00Z</time>
      </trkpt>
      <trkpt lat="59.970888779417" lon="17.751677825874">
        <ele>28.6</ele>
        <time>2014-08-29T17:53:01Z</time>
      </trkpt>
      <trkpt lat="59.970912584013" lon="17.751646896663">
        <ele>28.6</ele>
        <time>2014-08-29T17:53:02Z</time>
      </trkpt>
      <trkpt lat="59.970934460772" lon="17.751620158402">
        <ele>28.8</ele>
        <time>2014-08-29T17:53:03Z</time>
      </trkpt>
      <trkpt lat="59.970957091902" lon="17.751592162856">
        <ele>29</ele>
        <time>2014-08-29T17:53:04Z</time>
      </trkpt>
      <trkpt lat="59.97097905248" lon="17.751561988016">
        <ele>29</ele>
        <time>2014-08-29T17:53:05Z</time>
      </trkpt>
      <trkpt lat="59.971003108533" lon="17.751534076289">
        <ele>28.8</ele>
        <time>2014-08-29T17:53:06Z</time>
      </trkpt>
      <trkpt lat="59.971028673328" lon="17.751507673304">
        <ele>28.8</ele>
        <time>2014-08-29T17:53:07Z</time>
      </trkpt>
      <trkpt lat="59.971052477924" lon="17.75147783374">
        <ele>28.8</ele>
        <time>2014-08-29T17:53:08Z</time>
      </trkpt>
      <trkpt lat="59.971076533977" lon="17.7514476589">
        <ele>29</ele>
        <time>2014-08-29T17:53:09Z</time>
      </trkpt>
      <trkpt lat="59.971100422392" lon="17.751420501544">
        <ele>29.2</ele>
        <time>2014-08-29T17:53:10Z</time>
      </trkpt>
      <trkpt lat="59.971124813721" lon="17.751394182378">
        <ele>29.4</ele>
        <time>2014-08-29T17:53:11Z</time>
      </trkpt>
      <trkpt lat="59.97114920505" lon="17.751366689746">
        <ele>29.4</ele>
        <time>2014-08-29T17:53:12Z</time>
      </trkpt>
      <trkpt lat="59.971174602207" lon="17.751342801331">
        <ele>29</ele>
        <time>2014-08-29T17:53:13Z</time>
      </trkpt>
      <trkpt lat="59.971199580269" lon="17.751318242364">
        <ele>29</ele>
        <time>2014-08-29T17:53:14Z</time>
      </trkpt>
      <trkpt lat="59.971224809788" lon="17.751298041985">
        <ele>29</ele>
        <time>2014-08-29T17:53:15Z</time>
      </trkpt>
      <trkpt lat="59.97125062604" lon="17.751274405027">
        <ele>29.2</ele>
        <time>2014-08-29T17:53:16Z</time>
      </trkpt>
      <trkpt lat="59.971273760084" lon="17.751248756413">
        <ele>29</ele>
        <time>2014-08-29T17:53:17Z</time>
      </trkpt>
      <trkpt lat="59.971296139757" lon="17.751222353428">
        <ele>29</ele>
        <time>2014-08-29T17:53:18Z</time>
      </trkpt>
      <trkpt lat="59.971318770887" lon="17.751192765321">
        <ele>29</ele>
        <time>2014-08-29T17:53:19Z</time>
      </trkpt>
      <trkpt lat="59.971342156388" lon="17.751166613793">
        <ele>29.2</ele>
        <time>2014-08-29T17:53:20Z</time>
      </trkpt>
      <trkpt lat="59.971366380079" lon="17.751138869704">
        <ele>29.4</ele>
        <time>2014-08-29T17:53:21Z</time>
      </trkpt>
      <trkpt lat="59.971390519951" lon="17.751112550538">
        <ele>29.6</ele>
        <time>2014-08-29T17:53:22Z</time>
      </trkpt>
      <trkpt lat="59.971412731986" lon="17.751083213888">
        <ele>29.8</ele>
        <time>2014-08-29T17:53:23Z</time>
      </trkpt>
      <trkpt lat="59.971433267641" lon="17.751051027392">
        <ele>29.6</ele>
        <time>2014-08-29T17:53:24Z</time>
      </trkpt>
      <trkpt lat="59.971456066409" lon="17.751022445113">
        <ele>29.6</ele>
        <time>2014-08-29T17:53:25Z</time>
      </trkpt>
      <trkpt lat="59.971478026987" lon="17.750991599721">
        <ele>29.6</ele>
        <time>2014-08-29T17:53:26Z</time>
      </trkpt>
      <trkpt lat="59.971499065556" lon="17.750958742673">
        <ele>29.8</ele>
        <time>2014-08-29T17:53:27Z</time>
      </trkpt>
      <trkpt lat="59.971521026134" lon="17.750923203417">
        <ele>30.2</ele>
        <time>2014-08-29T17:53:28Z</time>
      </trkpt>
      <trkpt lat="59.971543657264" lon="17.750887245066">
        <ele>30.2</ele>
        <time>2014-08-29T17:53:29Z</time>
      </trkpt>
      <trkpt lat="59.971567629498" lon="17.750855393846">
        <ele>30</ele>
        <time>2014-08-29T17:53:30Z</time>
      </trkpt>
      <trkpt lat="59.971589087162" lon="17.750826224834">
        <ele>30.2</ele>
        <time>2014-08-29T17:53:31Z</time>
      </trkpt>
      <trkpt lat="59.971608700808" lon="17.750791272311">
        <ele>30.4</ele>
        <time>2014-08-29T17:53:32Z</time>
      </trkpt>
      <trkpt lat="59.971632170128" lon="17.750765539878">
        <ele>30.4</ele>
        <time>2014-08-29T17:53:33Z</time>
      </trkpt>
      <trkpt lat="59.971654214525" lon="17.750738633979">
        <ele>30.4</ele>
        <time>2014-08-29T17:53:34Z</time>
      </trkpt>
      <trkpt lat="59.971676510379" lon="17.750713572098">
        <ele>30.6</ele>
        <time>2014-08-29T17:53:35Z</time>
      </trkpt>
      <trkpt lat="59.971698722414" lon="17.750685157457">
        <ele>30.8</ele>
        <time>2014-08-29T17:53:36Z</time>
      </trkpt>
      <trkpt lat="59.971717162594" lon="17.750653725332">
        <ele>30.6</ele>
        <time>2014-08-29T17:53:37Z</time>
      </trkpt>
      <trkpt lat="59.971738284982" lon="17.750623047578">
        <ele>30.6</ele>
        <time>2014-08-29T17:53:38Z</time>
      </trkpt>
      <trkpt lat="59.971755803153" lon="17.750585915761">
        <ele>31</ele>
        <time>2014-08-29T17:53:39Z</time>
      </trkpt>
      <trkpt lat="59.971773153686" lon="17.750549454496">
        <ele>31</ele>
        <time>2014-08-29T17:53:40Z</time>
      </trkpt>
      <trkpt lat="59.9717904204" lon="17.750511149213">
        <ele>31</ele>
        <time>2014-08-29T17:53:41Z</time>
      </trkpt>
      <trkpt lat="59.97180550782" lon="17.750470664636">
        <ele>31.2</ele>
        <time>2014-08-29T17:53:42Z</time>
      </trkpt>
      <trkpt lat="59.971821265792" lon="17.750428084584">
        <ele>31.4</ele>
        <time>2014-08-29T17:53:43Z</time>
      </trkpt>
      <trkpt lat="59.971839286877" lon="17.750387264731">
        <ele>31.6</ele>
        <time>2014-08-29T17:53:44Z</time>
      </trkpt>
      <trkpt lat="59.97185663741" lon="17.750341667195">
        <ele>31.6</ele>
        <time>2014-08-29T17:53:45Z</time>
      </trkpt>
      <trkpt lat="59.971874658495" lon="17.750297494582">
        <ele>31.4</ele>
        <time>2014-08-29T17:53:46Z</time>
      </trkpt>
      <trkpt lat="59.971925033714" lon="17.750221554568">
        <ele>31.8</ele>
        <time>2014-08-29T17:53:48Z</time>
      </trkpt>
      <trkpt lat="59.971942719523" lon="17.75018450657">
        <ele>32</ele>
        <time>2014-08-29T17:53:49Z</time>
      </trkpt>
      <trkpt lat="59.97196057297" lon="17.750146955658">
        <ele>32</ele>
        <time>2014-08-29T17:53:50Z</time>
      </trkpt>
      <trkpt lat="59.971977085313" lon="17.750109237108">
        <ele>32</ele>
        <time>2014-08-29T17:53:51Z</time>
      </trkpt>
      <trkpt lat="59.971996028407" lon="17.750072105291">
        <ele>32.2</ele>
        <time>2014-08-29T17:53:52Z</time>
      </trkpt>
      <trkpt lat="59.972016815519" lon="17.750032542723">
        <ele>32.4</ele>
        <time>2014-08-29T17:53:53Z</time>
      </trkpt>
      <trkpt lat="59.972033076405" lon="17.749986106997">
        <ele>32.6</ele>
        <time>2014-08-29T17:53:54Z</time>
      </trkpt>
      <trkpt lat="59.972047493273" lon="17.749947466438">
        <ele>32.6</ele>
        <time>2014-08-29T17:53:55Z</time>
      </trkpt>
      <trkpt lat="59.972063418883" lon="17.749912178639">
        <ele>32.6</ele>
        <time>2014-08-29T17:53:56Z</time>
      </trkpt>
      <trkpt lat="59.972075321181" lon="17.749878651039">
        <ele>32.8</ele>
        <time>2014-08-29T17:53:57Z</time>
      </trkpt>
      <trkpt lat="59.972088480764" lon="17.749845793991">
        <ele>33</ele>
        <time>2014-08-29T17:53:58Z</time>
      </trkpt>
      <trkpt lat="59.972103819641" lon="17.749815032418">
        <ele>33</ele>
        <time>2014-08-29T17:53:59Z</time>
      </trkpt>
      <trkpt lat="59.972116560129" lon="17.749784019388">
        <ele>33</ele>
        <time>2014-08-29T17:54:00Z</time>
      </trkpt>
      <trkpt lat="59.972132485739" lon="17.749751916711">
        <ele>33.2</ele>
        <time>2014-08-29T17:54:01Z</time>
      </trkpt>
      <trkpt lat="59.972149668634" lon="17.74972014931">
        <ele>33</ele>
        <time>2014-08-29T17:54:02Z</time>
      </trkpt>
      <trkpt lat="59.972165258968" lon="17.749681424932">
        <ele>33</ele>
        <time>2014-08-29T17:54:03Z</time>
      </trkpt>
      <trkpt lat="59.972184453519" lon="17.749651166273">
        <ele>33.2</ele>
        <time>2014-08-29T17:54:04Z</time>
      </trkpt>
      <trkpt lat="59.97220448626" lon="17.74961956651">
        <ele>33.2</ele>
        <time>2014-08-29T17:54:05Z</time>
      </trkpt>
      <trkpt lat="59.972226027743" lon="17.749584111073">
        <ele>33.2</ele>
        <time>2014-08-29T17:54:06Z</time>
      </trkpt>
      <trkpt lat="59.972245892846" lon="17.749543123582">
        <ele>33.2</ele>
        <time>2014-08-29T17:54:07Z</time>
      </trkpt>
      <trkpt lat="59.972260309714" lon="17.749494340924">
        <ele>33.2</ele>
        <time>2014-08-29T17:54:08Z</time>
      </trkpt>
      <trkpt lat="59.972275648591" lon="17.749447318465">
        <ele>33</ele>
        <time>2014-08-29T17:54:09Z</time>
      </trkpt>
      <trkpt lat="59.972292244753" lon="17.749399876911">
        <ele>33</ele>
        <time>2014-08-29T17:54:10Z</time>
      </trkpt>
      <trkpt lat="59.972309427648" lon="17.749354530832">
        <ele>33.2</ele>
        <time>2014-08-29T17:54:11Z</time>
      </trkpt>
      <trkpt lat="59.972330298579" lon="17.749318404843">
        <ele>33</ele>
        <time>2014-08-29T17:54:12Z</time>
      </trkpt>
      <trkpt lat="59.972351001872" lon="17.749278842275">
        <ele>33</ele>
        <time>2014-08-29T17:54:13Z</time>
      </trkpt>
      <trkpt lat="59.972373716821" lon="17.74924573377">
        <ele>33</ele>
        <time>2014-08-29T17:54:14Z</time>
      </trkpt>
      <trkpt lat="59.972395761218" lon="17.749209440143">
        <ele>33</ele>
        <time>2014-08-29T17:54:15Z</time>
      </trkpt>
      <trkpt lat="59.972414955769" lon="17.749170464308">
        <ele>32.8</ele>
        <time>2014-08-29T17:54:16Z</time>
      </trkpt>
      <trkpt lat="59.972436581071" lon="17.749136266156">
        <ele>32.8</ele>
        <time>2014-08-29T17:54:17Z</time>
      </trkpt>
      <trkpt lat="59.972458206373" lon="17.749101481271">
        <ele>33</ele>
        <time>2014-08-29T17:54:18Z</time>
      </trkpt>
      <trkpt lat="59.972477065648" lon="17.749065439101">
        <ele>33.2</ele>
        <time>2014-08-29T17:54:19Z</time>
      </trkpt>
      <trkpt lat="59.972496008742" lon="17.749026882361">
        <ele>33</ele>
        <time>2014-08-29T17:54:20Z</time>
      </trkpt>
      <trkpt lat="59.972512604904" lon="17.748985140499">
        <ele>33</ele>
        <time>2014-08-29T17:54:21Z</time>
      </trkpt>
      <trkpt lat="59.972531547998" lon="17.748949349786">
        <ele>33</ele>
        <time>2014-08-29T17:54:22Z</time>
      </trkpt>
      <trkpt lat="59.972550910187" lon="17.748908362295">
        <ele>33</ele>
        <time>2014-08-29T17:54:23Z</time>
      </trkpt>
      <trkpt lat="59.972569601824" lon="17.748861339836">
        <ele>32.8</ele>
        <time>2014-08-29T17:54:24Z</time>
      </trkpt>
      <trkpt lat="59.972589634565" lon="17.748821274354">
        <ele>32.8</ele>
        <time>2014-08-29T17:54:25Z</time>
      </trkpt>
      <trkpt lat="59.972608158564" lon="17.748778610483">
        <ele>32.8</ele>
        <time>2014-08-29T17:54:26Z</time>
      </trkpt>
      <trkpt lat="59.972627017839" lon="17.748743238865">
        <ele>32.6</ele>
        <time>2014-08-29T17:54:27Z</time>
      </trkpt>
      <trkpt lat="59.972644703648" lon="17.748703927754">
        <ele>32.4</ele>
        <time>2014-08-29T17:54:28Z</time>
      </trkpt>
      <trkpt lat="59.972661467448" lon="17.748662940263">
        <ele>32.6</ele>
        <time>2014-08-29T17:54:29Z</time>
      </trkpt>
      <trkpt lat="59.972678650343" lon="17.748621366039">
        <ele>32.4</ele>
        <time>2014-08-29T17:54:30Z</time>
      </trkpt>
      <trkpt lat="59.97269818017" lon="17.748581468195">
        <ele>32.2</ele>
        <time>2014-08-29T17:54:31Z</time>
      </trkpt>
      <trkpt lat="59.972718045273" lon="17.748541151256">
        <ele>32.4</ele>
        <time>2014-08-29T17:54:32Z</time>
      </trkpt>
      <trkpt lat="59.972736233996" lon="17.748498990299">
        <ele>32.4</ele>
        <time>2014-08-29T17:54:33Z</time>
      </trkpt>
      <trkpt lat="59.972755680004" lon="17.748454147134">
        <ele>32.2</ele>
        <time>2014-08-29T17:54:34Z</time>
      </trkpt>
      <trkpt lat="59.972772108528" lon="17.748408968693">
        <ele>32.2</ele>
        <time>2014-08-29T17:54:35Z</time>
      </trkpt>
      <trkpt lat="59.972790548708" lon="17.748366137184">
        <ele>32.2</ele>
        <time>2014-08-29T17:54:36Z</time>
      </trkpt>
      <trkpt lat="59.972808653612" lon="17.748320204372">
        <ele>31.8</ele>
        <time>2014-08-29T17:54:37Z</time>
      </trkpt>
      <trkpt lat="59.972825249774" lon="17.748276953768">
        <ele>32</ele>
        <time>2014-08-29T17:54:38Z</time>
      </trkpt>
      <trkpt lat="59.972839666642" lon="17.748232781155">
        <ele>32.2</ele>
        <time>2014-08-29T17:54:39Z</time>
      </trkpt>
      <trkpt lat="59.972858023003" lon="17.748191877483">
        <ele>32.2</ele>
        <time>2014-08-29T17:54:40Z</time>
      </trkpt>
      <trkpt lat="59.972873780975" lon="17.748150638535">
        <ele>32</ele>
        <time>2014-08-29T17:54:41Z</time>
      </trkpt>
      <trkpt lat="59.972893059345" lon="17.74811250089">
        <ele>31.8</ele>
        <time>2014-08-29T17:54:42Z</time>
      </trkpt>
      <trkpt lat="59.972938824519" lon="17.748044439862">
        <ele>31.6</ele>
        <time>2014-08-29T17:54:44Z</time>
      </trkpt>
      <trkpt lat="59.972965478961" lon="17.748014013565">
        <ele>31.4</ele>
        <time>2014-08-29T17:54:45Z</time>
      </trkpt>
      <trkpt lat="59.972989618833" lon="17.747981575612">
        <ele>31.4</ele>
        <time>2014-08-29T17:54:46Z</time>
      </trkpt>
      <trkpt lat="59.973010238307" lon="17.747950897858">
        <ele>31.4</ele>
        <time>2014-08-29T17:54:47Z</time>
      </trkpt>
      <trkpt lat="59.97302926522" lon="17.747920723018">
        <ele>31.4</ele>
        <time>2014-08-29T17:54:48Z</time>
      </trkpt>
      <trkpt lat="59.973047621581" lon="17.747888536522">
        <ele>31.2</ele>
        <time>2014-08-29T17:54:49Z</time>
      </trkpt>
      <trkpt lat="59.973067151408" lon="17.747857858768">
        <ele>31.4</ele>
        <time>2014-08-29T17:54:50Z</time>
      </trkpt>
      <trkpt lat="59.973089363443" lon="17.74783003086">
        <ele>31.4</ele>
        <time>2014-08-29T17:54:51Z</time>
      </trkpt>
      <trkpt lat="59.973110988745" lon="17.74780320878">
        <ele>31.2</ele>
        <time>2014-08-29T17:54:52Z</time>
      </trkpt>
      <trkpt lat="59.973133452237" lon="17.747775967605">
        <ele>31.2</ele>
        <time>2014-08-29T17:54:53Z</time>
      </trkpt>
      <trkpt lat="59.973155664272" lon="17.747746547136">
        <ele>31.8</ele>
        <time>2014-08-29T17:54:54Z</time>
      </trkpt>
      <trkpt lat="59.973177708669" lon="17.747714276821">
        <ele>31.8</ele>
        <time>2014-08-29T17:54:55Z</time>
      </trkpt>
      <trkpt lat="59.973200591256" lon="17.747683599067">
        <ele>31.4</ele>
        <time>2014-08-29T17:54:56Z</time>
      </trkpt>
      <trkpt lat="59.97322121073" lon="17.747660465023">
        <ele>31.4</ele>
        <time>2014-08-29T17:54:57Z</time>
      </trkpt>
      <trkpt lat="59.973241746385" lon="17.747632134201">
        <ele>31.4</ele>
        <time>2014-08-29T17:54:58Z</time>
      </trkpt>
      <trkpt lat="59.973263287868" lon="17.747608497243">
        <ele>31.4</ele>
        <time>2014-08-29T17:54:59Z</time>
      </trkpt>
      <trkpt lat="59.973283991161" lon="17.747588464502">
        <ele>31.2</ele>
        <time>2014-08-29T17:55:00Z</time>
      </trkpt>
      <trkpt lat="59.973303940083" lon="17.747567845028">
        <ele>31.2</ele>
        <time>2014-08-29T17:55:01Z</time>
      </trkpt>
      <trkpt lat="59.973325230109" lon="17.747545800631">
        <ele>31.4</ele>
        <time>2014-08-29T17:55:02Z</time>
      </trkpt>
      <trkpt lat="59.973347693601" lon="17.747526186985">
        <ele>31.4</ele>
        <time>2014-08-29T17:55:03Z</time>
      </trkpt>
      <trkpt lat="59.973370576188" lon="17.747506824796">
        <ele>31.4</ele>
        <time>2014-08-29T17:55:04Z</time>
      </trkpt>
      <trkpt lat="59.973393123499" lon="17.747484528942">
        <ele>31.6</ele>
        <time>2014-08-29T17:55:05Z</time>
      </trkpt>
      <trkpt lat="59.973416341362" lon="17.747460724346">
        <ele>31.8</ele>
        <time>2014-08-29T17:55:06Z</time>
      </trkpt>
      <trkpt lat="59.973440481234" lon="17.747437841759">
        <ele>32</ele>
        <time>2014-08-29T17:55:07Z</time>
      </trkpt>
      <trkpt lat="59.973464788744" lon="17.747411271136">
        <ele>31.8</ele>
        <time>2014-08-29T17:55:08Z</time>
      </trkpt>
      <trkpt lat="59.973490018263" lon="17.747386544531">
        <ele>31.8</ele>
        <time>2014-08-29T17:55:09Z</time>
      </trkpt>
      <trkpt lat="59.973514828687" lon="17.747369277817">
        <ele>32</ele>
        <time>2014-08-29T17:55:10Z</time>
      </trkpt>
      <trkpt lat="59.973542656595" lon="17.747351508189">
        <ele>32</ele>
        <time>2014-08-29T17:55:11Z</time>
      </trkpt>
      <trkpt lat="59.973567634657" lon="17.747327452136">
        <ele>32</ele>
        <time>2014-08-29T17:55:12Z</time>
      </trkpt>
      <trkpt lat="59.973591439253" lon="17.747303479902">
        <ele>32.2</ele>
        <time>2014-08-29T17:55:13Z</time>
      </trkpt>
      <trkpt lat="59.973614824754" lon="17.747276657822">
        <ele>32.4</ele>
        <time>2014-08-29T17:55:14Z</time>
      </trkpt>
      <trkpt lat="59.97363695297" lon="17.747253020864">
        <ele>32.4</ele>
        <time>2014-08-29T17:55:15Z</time>
      </trkpt>
      <trkpt lat="59.973659667919" lon="17.747233574856">
        <ele>32.4</ele>
        <time>2014-08-29T17:55:16Z</time>
      </trkpt>
      <trkpt lat="59.973681879954" lon="17.747213709753">
        <ele>32.4</ele>
        <time>2014-08-29T17:55:17Z</time>
      </trkpt>
      <trkpt lat="59.973703086161" lon="17.74719216827">
        <ele>32.4</ele>
        <time>2014-08-29T17:55:18Z</time>
      </trkpt>
      <trkpt lat="59.973726806938" lon="17.747168028398">
        <ele>32.4</ele>
        <time>2014-08-29T17:55:19Z</time>
      </trkpt>
      <trkpt lat="59.973748683697" lon="17.747146570734">
        <ele>32.6</ele>
        <time>2014-08-29T17:55:20Z</time>
      </trkpt>
      <trkpt lat="59.97377441613" lon="17.747126873269">
        <ele>32.8</ele>
        <time>2014-08-29T17:55:21Z</time>
      </trkpt>
      <trkpt lat="59.973799310373" lon="17.747105667062">
        <ele>32.8</ele>
        <time>2014-08-29T17:55:22Z</time>
      </trkpt>
      <trkpt lat="59.973821773865" lon="17.747079515534">
        <ele>32.6</ele>
        <time>2014-08-29T17:55:23Z</time>
      </trkpt>
      <trkpt lat="59.973843482986" lon="17.747054453653">
        <ele>33</ele>
        <time>2014-08-29T17:55:24Z</time>
      </trkpt>
      <trkpt lat="59.973865359745" lon="17.747029307953">
        <ele>33</ele>
        <time>2014-08-29T17:55:25Z</time>
      </trkpt>
      <trkpt lat="59.9738858954" lon="17.747000558036">
        <ele>33</ele>
        <time>2014-08-29T17:55:26Z</time>
      </trkpt>
      <trkpt lat="59.973907939797" lon="17.746971305205">
        <ele>33</ele>
        <time>2014-08-29T17:55:27Z</time>
      </trkpt>
      <trkpt lat="59.97393115766" lon="17.746942471469">
        <ele>33</ele>
        <time>2014-08-29T17:55:28Z</time>
      </trkpt>
      <trkpt lat="59.973953034419" lon="17.746911877534">
        <ele>33</ele>
        <time>2014-08-29T17:55:29Z</time>
      </trkpt>
      <trkpt lat="59.973975330273" lon="17.746884636359">
        <ele>33</ele>
        <time>2014-08-29T17:55:30Z</time>
      </trkpt>
      <trkpt lat="59.974001230344" lon="17.746851946949">
        <ele>33</ele>
        <time>2014-08-29T17:55:31Z</time>
      </trkpt>
      <trkpt lat="59.974024448207" lon="17.746825711602">
        <ele>32.8</ele>
        <time>2014-08-29T17:55:32Z</time>
      </trkpt>
      <trkpt lat="59.974047582251" lon="17.746796207314">
        <ele>32.8</ele>
        <time>2014-08-29T17:55:33Z</time>
      </trkpt>
      <trkpt lat="59.974071722123" lon="17.746767038302">
        <ele>33</ele>
        <time>2014-08-29T17:55:34Z</time>
      </trkpt>
      <trkpt lat="59.974095107624" lon="17.746736276729">
        <ele>33</ele>
        <time>2014-08-29T17:55:35Z</time>
      </trkpt>
      <trkpt lat="59.974118241668" lon="17.74670601807">
        <ele>33</ele>
        <time>2014-08-29T17:55:36Z</time>
      </trkpt>
      <trkpt lat="59.974140118427" lon="17.746671903737">
        <ele>33</ele>
        <time>2014-08-29T17:55:37Z</time>
      </trkpt>
      <trkpt lat="59.974162330462" lon="17.746639465784">
        <ele>33</ele>
        <time>2014-08-29T17:55:38Z</time>
      </trkpt>
      <trkpt lat="59.974185045411" lon="17.746608368935">
        <ele>33</ele>
        <time>2014-08-29T17:55:39Z</time>
      </trkpt>
      <trkpt lat="59.974207676541" lon="17.746578780828">
        <ele>33</ele>
        <time>2014-08-29T17:55:40Z</time>
      </trkpt>
      <trkpt lat="59.97423290606" lon="17.746554473318">
        <ele>33</ele>
        <time>2014-08-29T17:55:41Z</time>
      </trkpt>
      <trkpt lat="59.974256710656" lon="17.746523795564">
        <ele>33</ele>
        <time>2014-08-29T17:55:42Z</time>
      </trkpt>
      <trkpt lat="59.974279341786" lon="17.746491609068">
        <ele>33</ele>
        <time>2014-08-29T17:55:43Z</time>
      </trkpt>
      <trkpt lat="59.974301218545" lon="17.746456656545">
        <ele>33.2</ele>
        <time>2014-08-29T17:55:44Z</time>
      </trkpt>
      <trkpt lat="59.974322257114" lon="17.746423296583">
        <ele>33.2</ele>
        <time>2014-08-29T17:55:45Z</time>
      </trkpt>
      <trkpt lat="59.974345139701" lon="17.746391110087">
        <ele>33.2</ele>
        <time>2014-08-29T17:55:46Z</time>
      </trkpt>
      <trkpt lat="59.974368189926" lon="17.746356828116">
        <ele>33.2</ele>
        <time>2014-08-29T17:55:47Z</time>
      </trkpt>
      <trkpt lat="59.974390150504" lon="17.746321875593">
        <ele>33.2</ele>
        <time>2014-08-29T17:55:48Z</time>
      </trkpt>
      <trkpt lat="59.974413536005" lon="17.746288264174">
        <ele>33.6</ele>
        <time>2014-08-29T17:55:49Z</time>
      </trkpt>
      <trkpt lat="59.97443574804" lon="17.746249707434">
        <ele>33.8</ele>
        <time>2014-08-29T17:55:50Z</time>
      </trkpt>
      <trkpt lat="59.97445754098" lon="17.746206624468">
        <ele>33.6</ele>
        <time>2014-08-29T17:55:51Z</time>
      </trkpt>
      <trkpt lat="59.974477573721" lon="17.746162200398">
        <ele>33.4</ele>
        <time>2014-08-29T17:55:52Z</time>
      </trkpt>
      <trkpt lat="59.974497690281" lon="17.746122302554">
        <ele>33.6</ele>
        <time>2014-08-29T17:55:53Z</time>
      </trkpt>
      <trkpt lat="59.974519818497" lon="17.746085506013">
        <ele>33.6</ele>
        <time>2014-08-29T17:55:54Z</time>
      </trkpt>
      <trkpt lat="59.974539851238" lon="17.746046865454">
        <ele>33.8</ele>
        <time>2014-08-29T17:55:55Z</time>
      </trkpt>
      <trkpt lat="59.974558794332" lon="17.746008057257">
        <ele>33.6</ele>
        <time>2014-08-29T17:55:56Z</time>
      </trkpt>
      <trkpt lat="59.974577821245" lon="17.745972685639">
        <ele>33.8</ele>
        <time>2014-08-29T17:55:57Z</time>
      </trkpt>
      <trkpt lat="59.974596931977" lon="17.745937984573">
        <ele>33.8</ele>
        <time>2014-08-29T17:55:58Z</time>
      </trkpt>
      <trkpt lat="59.974617719089" lon="17.745908731742">
        <ele>34</ele>
        <time>2014-08-29T17:55:59Z</time>
      </trkpt>
      <trkpt lat="59.974636997459" lon="17.745876126151">
        <ele>34</ele>
        <time>2014-08-29T17:56:00Z</time>
      </trkpt>
      <trkpt lat="59.974656359648" lon="17.745840754533">
        <ele>33.8</ele>
        <time>2014-08-29T17:56:01Z</time>
      </trkpt>
      <trkpt lat="59.97467547038" lon="17.745804041811">
        <ele>34</ele>
        <time>2014-08-29T17:56:02Z</time>
      </trkpt>
      <trkpt lat="59.974694245836" lon="17.745768754012">
        <ele>34</ele>
        <time>2014-08-29T17:56:03Z</time>
      </trkpt>
      <trkpt lat="59.974713524206" lon="17.745728017978">
        <ele>34</ele>
        <time>2014-08-29T17:56:04Z</time>
      </trkpt>
      <trkpt lat="59.974733137852" lon="17.745690718523">
        <ele>34</ele>
        <time>2014-08-29T17:56:05Z</time>
      </trkpt>
      <trkpt lat="59.974752835317" lon="17.745653754344">
        <ele>34</ele>
        <time>2014-08-29T17:56:06Z</time>
      </trkpt>
      <trkpt lat="59.974772197506" lon="17.745615700518">
        <ele>33.8</ele>
        <time>2014-08-29T17:56:07Z</time>
      </trkpt>
      <trkpt lat="59.974789631858" lon="17.745578903977">
        <ele>33.6</ele>
        <time>2014-08-29T17:56:08Z</time>
      </trkpt>
      <trkpt lat="59.974805222192" lon="17.745538167943">
        <ele>33.6</ele>
        <time>2014-08-29T17:56:09Z</time>
      </trkpt>
      <trkpt lat="59.974822237449" lon="17.745496928995">
        <ele>33.4</ele>
        <time>2014-08-29T17:56:10Z</time>
      </trkpt>
      <trkpt lat="59.974839504163" lon="17.745453929848">
        <ele>33.6</ele>
        <time>2014-08-29T17:56:11Z</time>
      </trkpt>
      <trkpt lat="59.974857106153" lon="17.745410846882">
        <ele>33.6</ele>
        <time>2014-08-29T17:56:12Z</time>
      </trkpt>
      <trkpt lat="59.974875127238" lon="17.745365500803">
        <ele>33.4</ele>
        <time>2014-08-29T17:56:13Z</time>
      </trkpt>
      <trkpt lat="59.974891639581" lon="17.745321495828">
        <ele>33.6</ele>
        <time>2014-08-29T17:56:14Z</time>
      </trkpt>
      <trkpt lat="59.97490681082" lon="17.745273886636">
        <ele>33.6</ele>
        <time>2014-08-29T17:56:15Z</time>
      </trkpt>
      <trkpt lat="59.974923826077" lon="17.745227534729">
        <ele>33.4</ele>
        <time>2014-08-29T17:56:16Z</time>
      </trkpt>
      <trkpt lat="59.974940170782" lon="17.745184870858">
        <ele>33.2</ele>
        <time>2014-08-29T17:56:17Z</time>
      </trkpt>
      <trkpt lat="59.974957605134" lon="17.745137596942">
        <ele>33.4</ele>
        <time>2014-08-29T17:56:18Z</time>
      </trkpt>
      <trkpt lat="59.974972860192" lon="17.745090490664">
        <ele>33.2</ele>
        <time>2014-08-29T17:56:19Z</time>
      </trkpt>
      <trkpt lat="59.974985768318" lon="17.745041288911">
        <ele>33</ele>
        <time>2014-08-29T17:56:20Z</time>
      </trkpt>
      <trkpt lat="59.974999766091" lon="17.744994098814">
        <ele>33.2</ele>
        <time>2014-08-29T17:56:21Z</time>
      </trkpt>
      <trkpt lat="59.975013931502" lon="17.744946992536">
        <ele>33.2</ele>
        <time>2014-08-29T17:56:22Z</time>
      </trkpt>
      <trkpt lat="59.975029605655" lon="17.744904077208">
        <ele>33</ele>
        <time>2014-08-29T17:56:23Z</time>
      </trkpt>
      <trkpt lat="59.975044860713" lon="17.744858228215">
        <ele>33</ele>
        <time>2014-08-29T17:56:24Z</time>
      </trkpt>
      <trkpt lat="59.975058858486" lon="17.744811876308">
        <ele>33</ele>
        <time>2014-08-29T17:56:25Z</time>
      </trkpt>
      <trkpt lat="59.975073107716" lon="17.74476393184">
        <ele>32.8</ele>
        <time>2014-08-29T17:56:26Z</time>
      </trkpt>
      <trkpt lat="59.975087273127" lon="17.744712466974">
        <ele>32.6</ele>
        <time>2014-08-29T17:56:27Z</time>
      </trkpt>
      <trkpt lat="59.975101773814" lon="17.744657230253">
        <ele>32.6</ele>
        <time>2014-08-29T17:56:28Z</time>
      </trkpt>
      <trkpt lat="59.975115017216" lon="17.744602328808">
        <ele>33</ele>
        <time>2014-08-29T17:56:29Z</time>
      </trkpt>
      <trkpt lat="59.975127338609" lon="17.744548684648">
        <ele>33</ele>
        <time>2014-08-29T17:56:30Z</time>
      </trkpt>
      <trkpt lat="59.97514066583" lon="17.744495878678">
        <ele>32.8</ele>
        <time>2014-08-29T17:56:31Z</time>
      </trkpt>
      <trkpt lat="59.975153406318" lon="17.744440306681">
        <ele>32.6</ele>
        <time>2014-08-29T17:56:32Z</time>
      </trkpt>
      <trkpt lat="59.975166314444" lon="17.744387081616">
        <ele>32.6</ele>
        <time>2014-08-29T17:56:33Z</time>
      </trkpt>
      <trkpt lat="59.975178300561" lon="17.744337125492">
        <ele>32.8</ele>
        <time>2014-08-29T17:56:34Z</time>
      </trkpt>
      <trkpt lat="59.975188191203" lon="17.744285157712">
        <ele>33.4</ele>
        <time>2014-08-29T17:56:35Z</time>
      </trkpt>
      <trkpt lat="59.975199003854" lon="17.744232184104">
        <ele>33.4</ele>
        <time>2014-08-29T17:56:36Z</time>
      </trkpt>
      <trkpt lat="59.975207134297" lon="17.744176109193">
        <ele>33</ele>
        <time>2014-08-29T17:56:37Z</time>
      </trkpt>
      <trkpt lat="59.975217695491" lon="17.74411684916">
        <ele>32.8</ele>
        <time>2014-08-29T17:56:38Z</time>
      </trkpt>
      <trkpt lat="59.975227250857" lon="17.744059936059">
        <ele>32.6</ele>
        <time>2014-08-29T17:56:39Z</time>
      </trkpt>
      <trkpt lat="59.97523454311" lon="17.744002352406">
        <ele>33</ele>
        <time>2014-08-29T17:56:40Z</time>
      </trkpt>
      <trkpt lat="59.975243260286" lon="17.74394418202">
        <ele>33.4</ele>
        <time>2014-08-29T17:56:41Z</time>
      </trkpt>
      <trkpt lat="59.975251390729" lon="17.74388802329">
        <ele>33.4</ele>
        <time>2014-08-29T17:56:42Z</time>
      </trkpt>
      <trkpt lat="59.975262790113" lon="17.743833457121">
        <ele>33</ele>
        <time>2014-08-29T17:56:43Z</time>
      </trkpt>
      <trkpt lat="59.975270836737" lon="17.743778555676">
        <ele>33</ele>
        <time>2014-08-29T17:56:44Z</time>
      </trkpt>
      <trkpt lat="59.97527896718" lon="17.743727426086">
        <ele>33.2</ele>
        <time>2014-08-29T17:56:45Z</time>
      </trkpt>
      <trkpt lat="59.97528818727" lon="17.743673949564">
        <ele>33.4</ele>
        <time>2014-08-29T17:56:46Z</time>
      </trkpt>
      <trkpt lat="59.975296150075" lon="17.743622400879">
        <ele>33</ele>
        <time>2014-08-29T17:56:47Z</time>
      </trkpt>
      <trkpt lat="59.975305370165" lon="17.743569594909">
        <ele>33</ele>
        <time>2014-08-29T17:56:48Z</time>
      </trkpt>
      <trkpt lat="59.975314254979" lon="17.74351921969">
        <ele>33</ele>
        <time>2014-08-29T17:56:49Z</time>
      </trkpt>
      <trkpt lat="59.975322720698" lon="17.7434680901">
        <ele>33</ele>
        <time>2014-08-29T17:56:50Z</time>
      </trkpt>
      <trkpt lat="59.975332276064" lon="17.743413440112">
        <ele>33</ele>
        <time>2014-08-29T17:56:51Z</time>
      </trkpt>
      <trkpt lat="59.975342250525" lon="17.743366333834">
        <ele>32.8</ele>
        <time>2014-08-29T17:56:52Z</time>
      </trkpt>
      <trkpt lat="59.975352895538" lon="17.743320820117">
        <ele>33</ele>
        <time>2014-08-29T17:56:53Z</time>
      </trkpt>
      <trkpt lat="59.97536530075" lon="17.743275390219">
        <ele>33</ele>
        <time>2014-08-29T17:56:54Z</time>
      </trkpt>
      <trkpt lat="59.975374604659" lon="17.743228451579">
        <ele>32.8</ele>
        <time>2014-08-29T17:56:55Z</time>
      </trkpt>
      <trkpt lat="59.975385082034" lon="17.743180171835">
        <ele>33</ele>
        <time>2014-08-29T17:56:56Z</time>
      </trkpt>
      <trkpt lat="59.975396816694" lon="17.743130970082">
        <ele>33</ele>
        <time>2014-08-29T17:56:57Z</time>
      </trkpt>
      <trkpt lat="59.975409557182" lon="17.743085372546">
        <ele>32.8</ele>
        <time>2014-08-29T17:56:58Z</time>
      </trkpt>
      <trkpt lat="59.975424057869" lon="17.743039020639">
        <ele>32.8</ele>
        <time>2014-08-29T17:56:59Z</time>
      </trkpt>
      <trkpt lat="59.97543738509" lon="17.742994764207">
        <ele>33.2</ele>
        <time>2014-08-29T17:57:00Z</time>
      </trkpt>
      <trkpt lat="59.975450544673" lon="17.742947155015">
        <ele>33.2</ele>
        <time>2014-08-29T17:57:01Z</time>
      </trkpt>
      <trkpt lat="59.975465129179" lon="17.742898707633">
        <ele>33</ele>
        <time>2014-08-29T17:57:02Z</time>
      </trkpt>
      <trkpt lat="59.975477115296" lon="17.742850763165">
        <ele>32.8</ele>
        <time>2014-08-29T17:57:03Z</time>
      </trkpt>
      <trkpt lat="59.975489688146" lon="17.742798543928">
        <ele>33</ele>
        <time>2014-08-29T17:57:04Z</time>
      </trkpt>
      <trkpt lat="59.97550192572" lon="17.742749425994">
        <ele>33</ele>
        <time>2014-08-29T17:57:05Z</time>
      </trkpt>
      <trkpt lat="59.975514833846" lon="17.742703241725">
        <ele>32.8</ele>
        <time>2014-08-29T17:57:06Z</time>
      </trkpt>
      <trkpt lat="59.975528328705" lon="17.742657308913">
        <ele>32.8</ele>
        <time>2014-08-29T17:57:07Z</time>
      </trkpt>
      <trkpt lat="59.975540733917" lon="17.74260978354">
        <ele>33</ele>
        <time>2014-08-29T17:57:08Z</time>
      </trkpt>
      <trkpt lat="59.975554564052" lon="17.742560497968">
        <ele>32.6</ele>
        <time>2014-08-29T17:57:09Z</time>
      </trkpt>
      <trkpt lat="59.975567975092" lon="17.742510960939">
        <ele>32.4</ele>
        <time>2014-08-29T17:57:10Z</time>
      </trkpt>
      <trkpt lat="59.975580128847" lon="17.742465866317">
        <ele>32.4</ele>
        <time>2014-08-29T17:57:11Z</time>
      </trkpt>
      <trkpt lat="59.97559328843" lon="17.742419262953">
        <ele>32.4</ele>
        <time>2014-08-29T17:57:12Z</time>
      </trkpt>
      <trkpt lat="59.975606112737" lon="17.742374838883">
        <ele>32.4</ele>
        <time>2014-08-29T17:57:13Z</time>
      </trkpt>
      <trkpt lat="59.975618350311" lon="17.742329157528">
        <ele>32.4</ele>
        <time>2014-08-29T17:57:14Z</time>
      </trkpt>
      <trkpt lat="59.975630755523" lon="17.742280877784">
        <ele>32.6</ele>
        <time>2014-08-29T17:57:15Z</time>
      </trkpt>
      <trkpt lat="59.975642993097" lon="17.742235615524">
        <ele>32.6</ele>
        <time>2014-08-29T17:57:16Z</time>
      </trkpt>
      <trkpt lat="59.97565615268" lon="17.742188006332">
        <ele>32.4</ele>
        <time>2014-08-29T17:57:17Z</time>
      </trkpt>
      <trkpt lat="59.975670066634" lon="17.742140229502">
        <ele>32.4</ele>
        <time>2014-08-29T17:57:18Z</time>
      </trkpt>
      <trkpt lat="59.975682723303" lon="17.742094464328">
        <ele>32.6</ele>
        <time>2014-08-29T17:57:19Z</time>
      </trkpt>
      <trkpt lat="59.975697307809" lon="17.742047860964">
        <ele>32.4</ele>
        <time>2014-08-29T17:57:20Z</time>
      </trkpt>
      <trkpt lat="59.975711557039" lon="17.742002514885">
        <ele>32.2</ele>
        <time>2014-08-29T17:57:21Z</time>
      </trkpt>
      <trkpt lat="59.975725051898" lon="17.741961443575">
        <ele>32</ele>
        <time>2014-08-29T17:57:22Z</time>
      </trkpt>
      <trkpt lat="59.975738546757" lon="17.741915259306">
        <ele>32.2</ele>
        <time>2014-08-29T17:57:23Z</time>
      </trkpt>
      <trkpt lat="59.97576511738" lon="17.741823728958">
        <ele>32.2</ele>
        <time>2014-08-29T17:57:25Z</time>
      </trkpt>
      <trkpt lat="59.975778863696" lon="17.741776371223">
        <ele>32</ele>
        <time>2014-08-29T17:57:26Z</time>
      </trkpt>
      <trkpt lat="59.975790346899" lon="17.741728678212">
        <ele>31.8</ele>
        <time>2014-08-29T17:57:27Z</time>
      </trkpt>
      <trkpt lat="59.975802081559" lon="17.741680649925">
        <ele>31.8</ele>
        <time>2014-08-29T17:57:28Z</time>
      </trkpt>
      <trkpt lat="59.975813229486" lon="17.741634800932">
        <ele>31.8</ele>
        <time>2014-08-29T17:57:29Z</time>
      </trkpt>
      <trkpt lat="59.975819683549" lon="17.741588365206">
        <ele>31.8</ele>
        <time>2014-08-29T17:57:30Z</time>
      </trkpt>
      <trkpt lat="59.975829406553" lon="17.741538995815">
        <ele>31.8</ele>
        <time>2014-08-29T17:57:31Z</time>
      </trkpt>
      <trkpt lat="59.975840219204" lon="17.741491470442">
        <ele>31.8</ele>
        <time>2014-08-29T17:57:32Z</time>
      </trkpt>
      <trkpt lat="59.97585145095" lon="17.741447884562">
        <ele>31.6</ele>
        <time>2014-08-29T17:57:33Z</time>
      </trkpt>
      <trkpt lat="59.975863101791" lon="17.741400023913">
        <ele>31.6</ele>
        <time>2014-08-29T17:57:34Z</time>
      </trkpt>
      <trkpt lat="59.975874165899" lon="17.741351157436">
        <ele>31.6</ele>
        <time>2014-08-29T17:57:35Z</time>
      </trkpt>
      <trkpt lat="59.975886152016" lon="17.741303129149">
        <ele>31.4</ele>
        <time>2014-08-29T17:57:36Z</time>
      </trkpt>
      <trkpt lat="59.975898892504" lon="17.741251580464">
        <ele>31.4</ele>
        <time>2014-08-29T17:57:37Z</time>
      </trkpt>
      <trkpt lat="59.975910375707" lon="17.741200450874">
        <ele>31.4</ele>
        <time>2014-08-29T17:57:38Z</time>
      </trkpt>
      <trkpt lat="59.975923116195" lon="17.741145633248">
        <ele>31.4</ele>
        <time>2014-08-29T17:57:39Z</time>
      </trkpt>
      <trkpt lat="59.975935940502" lon="17.741094503658">
        <ele>31.2</ele>
        <time>2014-08-29T17:57:40Z</time>
      </trkpt>
      <trkpt lat="59.975947758981" lon="17.741043793163">
        <ele>31.2</ele>
        <time>2014-08-29T17:57:41Z</time>
      </trkpt>
      <trkpt lat="59.975959745098" lon="17.740991406288">
        <ele>31.4</ele>
        <time>2014-08-29T17:57:42Z</time>
      </trkpt>
      <trkpt lat="59.975971395939" lon="17.740939773784">
        <ele>31.4</ele>
        <time>2014-08-29T17:57:43Z</time>
      </trkpt>
      <trkpt lat="59.975984974617" lon="17.740888644194">
        <ele>31.2</ele>
        <time>2014-08-29T17:57:44Z</time>
      </trkpt>
      <trkpt lat="59.97599897239" lon="17.740841789373">
        <ele>31.2</ele>
        <time>2014-08-29T17:57:45Z</time>
      </trkpt>
      <trkpt lat="59.976012551068" lon="17.740795605104">
        <ele>31.2</ele>
        <time>2014-08-29T17:57:46Z</time>
      </trkpt>
      <trkpt lat="59.976027638488" lon="17.740746906265">
        <ele>31.2</ele>
        <time>2014-08-29T17:57:47Z</time>
      </trkpt>
      <trkpt lat="59.976041468623" lon="17.740700638177">
        <ele>31</ele>
        <time>2014-08-29T17:57:48Z</time>
      </trkpt>
      <trkpt lat="59.976056304586" lon="17.74065596265">
        <ele>31</ele>
        <time>2014-08-29T17:57:49Z</time>
      </trkpt>
      <trkpt lat="59.976072565472" lon="17.740614472245">
        <ele>31.2</ele>
        <time>2014-08-29T17:57:50Z</time>
      </trkpt>
      <trkpt lat="59.976088491082" lon="17.74056627632">
        <ele>31</ele>
        <time>2014-08-29T17:57:51Z</time>
      </trkpt>
      <trkpt lat="59.976105757796" lon="17.740517242205">
        <ele>30.8</ele>
        <time>2014-08-29T17:57:52Z</time>
      </trkpt>
      <trkpt lat="59.976123443605" lon="17.740470219746">
        <ele>30.8</ele>
        <time>2014-08-29T17:57:53Z</time>
      </trkpt>
      <trkpt lat="59.976140877957" lon="17.740423616382">
        <ele>30.8</ele>
        <time>2014-08-29T17:57:54Z</time>
      </trkpt>
      <trkpt lat="59.976157893214" lon="17.740380784873">
        <ele>31</ele>
        <time>2014-08-29T17:57:55Z</time>
      </trkpt>
      <trkpt lat="59.976175076109" lon="17.740334516785">
        <ele>30.8</ele>
        <time>2014-08-29T17:57:56Z</time>
      </trkpt>
      <trkpt lat="59.976192426642" lon="17.740286739955">
        <ele>30.6</ele>
        <time>2014-08-29T17:57:57Z</time>
      </trkpt>
      <trkpt lat="59.97620851989" lon="17.740239046944">
        <ele>30.6</ele>
        <time>2014-08-29T17:57:58Z</time>
      </trkpt>
      <trkpt lat="59.976225367509" lon="17.740192192123">
        <ele>31</ele>
        <time>2014-08-29T17:57:59Z</time>
      </trkpt>
      <trkpt lat="59.9762412093" lon="17.740145924035">
        <ele>31</ele>
        <time>2014-08-29T17:58:00Z</time>
      </trkpt>
      <trkpt lat="59.976255961444" lon="17.740101332327">
        <ele>30.6</ele>
        <time>2014-08-29T17:58:01Z</time>
      </trkpt>
      <trkpt lat="59.976270126855" lon="17.740053220221">
        <ele>30.8</ele>
        <time>2014-08-29T17:58:02Z</time>
      </trkpt>
      <trkpt lat="59.976282699705" lon="17.740005443391">
        <ele>30.8</ele>
        <time>2014-08-29T17:58:03Z</time>
      </trkpt>
      <trkpt lat="59.976296194564" lon="17.739958001837">
        <ele>30.6</ele>
        <time>2014-08-29T17:58:04Z</time>
      </trkpt>
      <trkpt lat="59.976311952536" lon="17.739910895559">
        <ele>30.2</ele>
        <time>2014-08-29T17:58:05Z</time>
      </trkpt>
      <trkpt lat="59.976326369404" lon="17.7398638731">
        <ele>30.2</ele>
        <time>2014-08-29T17:58:06Z</time>
      </trkpt>
      <trkpt lat="59.976343384661" lon="17.739819281392">
        <ele>30.4</ele>
        <time>2014-08-29T17:58:07Z</time>
      </trkpt>
      <trkpt lat="59.976359645547" lon="17.739776282245">
        <ele>30.6</ele>
        <time>2014-08-29T17:58:08Z</time>
      </trkpt>
      <trkpt lat="59.97637783427" lon="17.739734708021">
        <ele>30.4</ele>
        <time>2014-08-29T17:58:09Z</time>
      </trkpt>
      <trkpt lat="59.976398705201" lon="17.739694223444">
        <ele>30.2</ele>
        <time>2014-08-29T17:58:10Z</time>
      </trkpt>
      <trkpt lat="59.976418486485" lon="17.739656588713">
        <ele>30.4</ele>
        <time>2014-08-29T17:58:11Z</time>
      </trkpt>
      <trkpt lat="59.976439944149" lon="17.739618031973">
        <ele>30.8</ele>
        <time>2014-08-29T17:58:12Z</time>
      </trkpt>
      <trkpt lat="59.976460563623" lon="17.739580816337">
        <ele>30.4</ele>
        <time>2014-08-29T17:58:13Z</time>
      </trkpt>
      <trkpt lat="59.976482775658" lon="17.739545696176">
        <ele>30.2</ele>
        <time>2014-08-29T17:58:14Z</time>
      </trkpt>
      <trkpt lat="59.976504820055" lon="17.739512000938">
        <ele>30</ele>
        <time>2014-08-29T17:58:15Z</time>
      </trkpt>
      <trkpt lat="59.976528121737" lon="17.739481742279">
        <ele>30.4</ele>
        <time>2014-08-29T17:58:16Z</time>
      </trkpt>
      <trkpt lat="59.976552429247" lon="17.739455087837">
        <ele>30.8</ele>
        <time>2014-08-29T17:58:17Z</time>
      </trkpt>
      <trkpt lat="59.976574976558" lon="17.739425332092">
        <ele>31</ele>
        <time>2014-08-29T17:58:18Z</time>
      </trkpt>
      <trkpt lat="59.976600206077" lon="17.739401108401">
        <ele>30.8</ele>
        <time>2014-08-29T17:58:19Z</time>
      </trkpt>
      <trkpt lat="59.976624429768" lon="17.7393777229">
        <ele>30.4</ele>
        <time>2014-08-29T17:58:20Z</time>
      </trkpt>
      <trkpt lat="59.976648150545" lon="17.739360288548">
        <ele>30.4</ele>
        <time>2014-08-29T17:58:21Z</time>
      </trkpt>
      <trkpt lat="59.976673882978" lon="17.739344530576">
        <ele>30.4</ele>
        <time>2014-08-29T17:58:22Z</time>
      </trkpt>
      <trkpt lat="59.976700202144" lon="17.739325838939">
        <ele>30.8</ele>
        <time>2014-08-29T17:58:23Z</time>
      </trkpt>
      <trkpt lat="59.97672652131" lon="17.73930899132">
        <ele>31.2</ele>
        <time>2014-08-29T17:58:24Z</time>
      </trkpt>
      <trkpt lat="59.976751918467" lon="17.739296250832">
        <ele>31.2</ele>
        <time>2014-08-29T17:58:25Z</time>
      </trkpt>
      <trkpt lat="59.976778824366" lon="17.739283426525">
        <ele>31</ele>
        <time>2014-08-29T17:58:26Z</time>
      </trkpt>
      <trkpt lat="59.976805478808" lon="17.739271691865">
        <ele>31</ele>
        <time>2014-08-29T17:58:27Z</time>
      </trkpt>
      <trkpt lat="59.976830540689" lon="17.739258867558">
        <ele>31.2</ele>
        <time>2014-08-29T17:58:28Z</time>
      </trkpt>
      <trkpt lat="59.976856524579" lon="17.739250485658">
        <ele>31.6</ele>
        <time>2014-08-29T17:58:29Z</time>
      </trkpt>
      <trkpt lat="59.976882173193" lon="17.739241852301">
        <ele>31.8</ele>
        <time>2014-08-29T17:58:30Z</time>
      </trkpt>
      <trkpt lat="59.976907989445" lon="17.739229614727">
        <ele>31.6</ele>
        <time>2014-08-29T17:58:31Z</time>
      </trkpt>
      <trkpt lat="59.976933302783" lon="17.739217293334">
        <ele>31.6</ele>
        <time>2014-08-29T17:58:32Z</time>
      </trkpt>
      <trkpt lat="59.976957526474" lon="17.739206145407">
        <ele>31.8</ele>
        <time>2014-08-29T17:58:33Z</time>
      </trkpt>
      <trkpt lat="59.976981833984" lon="17.739188794874">
        <ele>32.2</ele>
        <time>2014-08-29T17:58:34Z</time>
      </trkpt>
      <trkpt lat="59.977010332444" lon="17.739171863436">
        <ele>32.4</ele>
        <time>2014-08-29T17:58:35Z</time>
      </trkpt>
      <trkpt lat="59.977037070705" lon="17.739156943654">
        <ele>32.2</ele>
        <time>2014-08-29T17:58:36Z</time>
      </trkpt>
      <trkpt lat="59.977064563337" lon="17.739146550098">
        <ele>32.2</ele>
        <time>2014-08-29T17:58:37Z</time>
      </trkpt>
      <trkpt lat="59.977093313254" lon="17.739138252017">
        <ele>32.2</ele>
        <time>2014-08-29T17:58:38Z</time>
      </trkpt>
      <trkpt lat="59.977123068999" lon="17.739125008615">
        <ele>32.2</ele>
        <time>2014-08-29T17:58:39Z</time>
      </trkpt>
      <trkpt lat="59.977153243839" lon="17.739105227331">
        <ele>32.6</ele>
        <time>2014-08-29T17:58:40Z</time>
      </trkpt>
      <trkpt lat="59.977181742299" lon="17.739093827947">
        <ele>32.8</ele>
        <time>2014-08-29T17:58:41Z</time>
      </trkpt>
      <trkpt lat="59.97721099513" lon="17.739086451875">
        <ele>32.8</ele>
        <time>2014-08-29T17:58:42Z</time>
      </trkpt>
      <trkpt lat="59.97723697902" lon="17.7390759745">
        <ele>32.6</ele>
        <time>2014-08-29T17:58:43Z</time>
      </trkpt>
      <trkpt lat="59.977260783616" lon="17.739068598428">
        <ele>32.6</ele>
        <time>2014-08-29T17:58:44Z</time>
      </trkpt>
      <trkpt lat="59.977285845497" lon="17.739059797433">
        <ele>33</ele>
        <time>2014-08-29T17:58:45Z</time>
      </trkpt>
      <trkpt lat="59.977311075016" lon="17.739049403877">
        <ele>33</ele>
        <time>2014-08-29T17:58:46Z</time>
      </trkpt>
      <trkpt lat="59.977336472173" lon="17.739035238466">
        <ele>33</ele>
        <time>2014-08-29T17:58:47Z</time>
      </trkpt>
      <trkpt lat="59.977360025312" lon="17.73901813939">
        <ele>33.2</ele>
        <time>2014-08-29T17:58:48Z</time>
      </trkpt>
      <trkpt lat="59.977380980062" lon="17.739000705038">
        <ele>33.4</ele>
        <time>2014-08-29T17:58:49Z</time>
      </trkpt>
      <trkpt lat="59.977401683355" lon="17.738984360333">
        <ele>33.6</ele>
        <time>2014-08-29T17:58:50Z</time>
      </trkpt>
      <trkpt lat="59.977422638105" lon="17.738966003972">
        <ele>33.4</ele>
        <time>2014-08-29T17:58:51Z</time>
      </trkpt>
      <trkpt lat="59.977444682502" lon="17.738949994543">
        <ele>33.6</ele>
        <time>2014-08-29T17:58:52Z</time>
      </trkpt>
      <trkpt lat="59.977466726899" lon="17.738933398381">
        <ele>34</ele>
        <time>2014-08-29T17:58:53Z</time>
      </trkpt>
      <trkpt lat="59.977489022753" lon="17.738919735884">
        <ele>34</ele>
        <time>2014-08-29T17:58:54Z</time>
      </trkpt>
      <trkpt lat="59.977514336091" lon="17.738911186346">
        <ele>34</ele>
        <time>2014-08-29T17:58:55Z</time>
      </trkpt>
      <trkpt lat="59.977539230334" lon="17.738906324844">
        <ele>34.2</ele>
        <time>2014-08-29T17:58:56Z</time>
      </trkpt>
      <trkpt lat="59.977563454025" lon="17.738901211885">
        <ele>34.6</ele>
        <time>2014-08-29T17:58:57Z</time>
      </trkpt>
      <trkpt lat="59.977590276105" lon="17.738896182745">
        <ele>34.8</ele>
        <time>2014-08-29T17:58:58Z</time>
      </trkpt>
      <trkpt lat="59.977616259995" lon="17.738889477225">
        <ele>34.8</ele>
        <time>2014-08-29T17:58:59Z</time>
      </trkpt>
      <trkpt lat="59.977642327704" lon="17.738886124465">
        <ele>35</ele>
        <time>2014-08-29T17:59:00Z</time>
      </trkpt>
      <trkpt lat="59.977669652698" lon="17.738886208284">
        <ele>35.2</ele>
        <time>2014-08-29T17:59:01Z</time>
      </trkpt>
      <trkpt lat="59.977694714579" lon="17.738882855524">
        <ele>35.4</ele>
        <time>2014-08-29T17:59:02Z</time>
      </trkpt>
      <trkpt lat="59.977720530831" lon="17.738881765877">
        <ele>35.4</ele>
        <time>2014-08-29T17:59:03Z</time>
      </trkpt>
      <trkpt lat="59.977743664875" lon="17.738880424773">
        <ele>35.6</ele>
        <time>2014-08-29T17:59:04Z</time>
      </trkpt>
      <trkpt lat="59.977767050376" lon="17.738883358438">
        <ele>35.8</ele>
        <time>2014-08-29T17:59:05Z</time>
      </trkpt>
      <trkpt lat="59.977793704818" lon="17.738895093098">
        <ele>35.8</ele>
        <time>2014-08-29T17:59:06Z</time>
      </trkpt>
      <trkpt lat="59.977819604889" lon="17.738905151378">
        <ele>36</ele>
        <time>2014-08-29T17:59:07Z</time>
      </trkpt>
      <trkpt lat="59.977847432797" lon="17.738917640409">
        <ele>36.2</ele>
        <time>2014-08-29T17:59:08Z</time>
      </trkpt>
      <trkpt lat="59.977875009248" lon="17.738929877983">
        <ele>36.6</ele>
        <time>2014-08-29T17:59:09Z</time>
      </trkpt>
      <trkpt lat="59.977901831328" lon="17.738942953747">
        <ele>36.4</ele>
        <time>2014-08-29T17:59:10Z</time>
      </trkpt>
      <trkpt lat="59.977928904865" lon="17.738956532425">
        <ele>36.4</ele>
        <time>2014-08-29T17:59:11Z</time>
      </trkpt>
      <trkpt lat="59.977956062221" lon="17.738965836334">
        <ele>36.4</ele>
        <time>2014-08-29T17:59:12Z</time>
      </trkpt>
      <trkpt lat="59.977983973948" lon="17.738976565166">
        <ele>36.6</ele>
        <time>2014-08-29T17:59:13Z</time>
      </trkpt>
      <trkpt lat="59.9780097902" lon="17.738990311482">
        <ele>36.8</ele>
        <time>2014-08-29T17:59:14Z</time>
      </trkpt>
      <trkpt lat="59.978033510977" lon="17.739003219608">
        <ele>36.6</ele>
        <time>2014-08-29T17:59:15Z</time>
      </trkpt>
      <trkpt lat="59.978057734668" lon="17.739016379191">
        <ele>36.8</ele>
        <time>2014-08-29T17:59:16Z</time>
      </trkpt>
      <trkpt lat="59.978109702448" lon="17.739031885706">
        <ele>36.8</ele>
        <time>2014-08-29T17:59:18Z</time>
      </trkpt>
      <trkpt lat="59.978137111261" lon="17.739043033633">
        <ele>36.8</ele>
        <time>2014-08-29T17:59:19Z</time>
      </trkpt>
      <trkpt lat="59.978162508418" lon="17.739048398049">
        <ele>36.8</ele>
        <time>2014-08-29T17:59:20Z</time>
      </trkpt>
      <trkpt lat="59.978188073213" lon="17.739058540148">
        <ele>36.8</ele>
        <time>2014-08-29T17:59:21Z</time>
      </trkpt>
      <trkpt lat="59.978212464542" lon="17.739069939532">
        <ele>36.8</ele>
        <time>2014-08-29T17:59:22Z</time>
      </trkpt>
      <trkpt lat="59.978238113156" lon="17.739080668364">
        <ele>37</ele>
        <time>2014-08-29T17:59:23Z</time>
      </trkpt>
      <trkpt lat="59.978263091218" lon="17.739077064147">
        <ele>37.4</ele>
        <time>2014-08-29T17:59:24Z</time>
      </trkpt>
      <trkpt lat="59.978290416212" lon="17.739074717215">
        <ele>37.6</ele>
        <time>2014-08-29T17:59:25Z</time>
      </trkpt>
      <trkpt lat="59.978316064826" lon="17.739074968672">
        <ele>37.4</ele>
        <time>2014-08-29T17:59:26Z</time>
      </trkpt>
      <trkpt lat="59.978342719268" lon="17.73908016545">
        <ele>37.2</ele>
        <time>2014-08-29T17:59:27Z</time>
      </trkpt>
      <trkpt lat="59.978371133909" lon="17.739084943133">
        <ele>37.6</ele>
        <time>2014-08-29T17:59:28Z</time>
      </trkpt>
      <trkpt lat="59.978400722016" lon="17.739084188762">
        <ele>37.6</ele>
        <time>2014-08-29T17:59:29Z</time>
      </trkpt>
      <trkpt lat="59.978430393942" lon="17.739083685848">
        <ele>37.4</ele>
        <time>2014-08-29T17:59:30Z</time>
      </trkpt>
      <trkpt lat="59.97845822185" lon="17.739089636997">
        <ele>37.2</ele>
        <time>2014-08-29T17:59:31Z</time>
      </trkpt>
      <trkpt lat="59.978486971767" lon="17.739096510155">
        <ele>37.4</ele>
        <time>2014-08-29T17:59:32Z</time>
      </trkpt>
      <trkpt lat="59.978518403892" lon="17.739103718589">
        <ele>37.4</ele>
        <time>2014-08-29T17:59:33Z</time>
      </trkpt>
      <trkpt lat="59.978551512397" lon="17.739100533467">
        <ele>37.2</ele>
        <time>2014-08-29T17:59:34Z</time>
      </trkpt>
      <trkpt lat="59.978582357789" lon="17.739109083005">
        <ele>37</ele>
        <time>2014-08-29T17:59:35Z</time>
      </trkpt>
      <trkpt lat="59.978616136846" lon="17.739118219276">
        <ele>37.2</ele>
        <time>2014-08-29T17:59:36Z</time>
      </trkpt>
      <trkpt lat="59.97865016736" lon="17.739135066895">
        <ele>37.6</ele>
        <time>2014-08-29T17:59:37Z</time>
      </trkpt>
      <trkpt lat="59.978684784607" lon="17.739150908686">
        <ele>37.4</ele>
        <time>2014-08-29T17:59:38Z</time>
      </trkpt>
      <trkpt lat="59.978716552008" lon="17.739167001934">
        <ele>36.8</ele>
        <time>2014-08-29T17:59:39Z</time>
      </trkpt>
      <trkpt lat="59.978743541726" lon="17.73918661558">
        <ele>36.6</ele>
        <time>2014-08-29T17:59:40Z</time>
      </trkpt>
      <trkpt lat="59.978769693254" lon="17.739204049932">
        <ele>36.4</ele>
        <time>2014-08-29T17:59:41Z</time>
      </trkpt>
      <trkpt lat="59.978799281361" lon="17.739226932519">
        <ele>36.8</ele>
        <time>2014-08-29T17:59:42Z</time>
      </trkpt>
      <trkpt lat="59.97882954002" lon="17.739242606672">
        <ele>37.2</ele>
        <time>2014-08-29T17:59:43Z</time>
      </trkpt>
      <trkpt lat="59.978861726516" lon="17.739264734888">
        <ele>37</ele>
        <time>2014-08-29T17:59:44Z</time>
      </trkpt>
      <trkpt lat="59.978894248288" lon="17.739285857276">
        <ele>36.4</ele>
        <time>2014-08-29T17:59:45Z</time>
      </trkpt>
    </trkseg>
  </trk>
</gpx>